<?xml version="1.0" encoding="UTF-8" standalone="no" ?>
<gpx xmlns="http://www.topografix.com/GPX/1/1" xmlns:xsi="http://www.w3.org/2001/XMLSchema-instance" xsi:schemaLocation="http://www.topografix.com/GPX/1/1 http://www.topografix.com/GPX/1/1/gpx.xsd" version="1.1" creator="VisuGPX - https://www.visugpx.com">
  <metadata>
    <name>Rando du 16/02/2014 - BOURRON MARLOTTE</name>
    <desc><![CDATA[Randonnée journée à Bourron Marlotte en faisant le tour des principaux rochers remarquables]]></desc>
  </metadata>
  <trk>
    <name><![CDATA[2014-02-16 09:28]]></name>
    <desc><![CDATA[<h1>OruxMaps</h1><br /><hr align="center" width="480" style="height: 2px; width: 517px"/><h2>Nom: 2014-02-16 09:28</h2><br /><p>Temps de départ: 02/16/2014 21:29</p><p>Temps d'arrivée: 02/17/2014 02:55</p><p>Distance: 14,3 km (05:25)</p><p>Temps déplacement: 03:03</p><p>Vitesse moyenne: 2,6 km/h</p><p>Vitesse moyenne: 4,7 km/h</p><p>Vitess Max.: 8,2 km/h</p><p>Altitude minimale: 62 m</p><p>Altitude maximale: 140 m</p><p>Vitesse d'élévation: 241,9 m/h</p><p>Vitesse de descente: -208 m/h</p><p>Gain Altitude: 498 m</p><p>Perte Altitude: -505 m</p><p>Temps d'élévation: 02:03</p><p>Temps de descente: 02:25</p><hr align="center" width="480" style="height: 2px; width: 517px"/>]]></desc>
    <trkseg>
      <trkpt lat="48.35393" lon="2.72811">
        <ele>95.84</ele>
        <time>2014-02-16T08:29:25Z</time>
      </trkpt>
      <trkpt lat="48.35402" lon="2.72787">
        <ele>94.23</ele>
        <time>2014-02-16T08:30:42Z</time>
      </trkpt>
      <trkpt lat="48.35411" lon="2.72763">
        <ele>94.87</ele>
        <time>2014-02-16T08:31:10Z</time>
      </trkpt>
      <trkpt lat="48.35425" lon="2.72745">
        <ele>87.26</ele>
        <time>2014-02-16T08:31:31Z</time>
      </trkpt>
      <trkpt lat="48.35439" lon="2.72727">
        <ele>87.91</ele>
        <time>2014-02-16T08:31:48Z</time>
      </trkpt>
      <trkpt lat="48.3545" lon="2.72705">
        <ele>93.88</ele>
        <time>2014-02-16T08:32:05Z</time>
      </trkpt>
      <trkpt lat="48.35465" lon="2.72691">
        <ele>90.55</ele>
        <time>2014-02-16T08:32:21Z</time>
      </trkpt>
      <trkpt lat="48.3548" lon="2.72676">
        <ele>97.17</ele>
        <time>2014-02-16T08:32:34Z</time>
      </trkpt>
      <trkpt lat="48.35495" lon="2.72657">
        <ele>107.87</ele>
        <time>2014-02-16T08:32:51Z</time>
      </trkpt>
      <trkpt lat="48.3551" lon="2.7264">
        <ele>109.99</ele>
        <time>2014-02-16T08:33:11Z</time>
      </trkpt>
      <trkpt lat="48.35527" lon="2.72631">
        <ele>115.73</ele>
        <time>2014-02-16T08:33:25Z</time>
      </trkpt>
      <trkpt lat="48.35539" lon="2.72611">
        <ele>124.09</ele>
        <time>2014-02-16T08:33:40Z</time>
      </trkpt>
      <trkpt lat="48.35572" lon="2.72579">
        <ele>121.51</ele>
        <time>2014-02-16T08:34:23Z</time>
      </trkpt>
      <trkpt lat="48.3559" lon="2.72575">
        <ele>114.82</ele>
        <time>2014-02-16T08:34:39Z</time>
      </trkpt>
      <trkpt lat="48.35608" lon="2.72578">
        <ele>102.38</ele>
        <time>2014-02-16T08:34:56Z</time>
      </trkpt>
      <trkpt lat="48.35626" lon="2.72576">
        <ele>105.42</ele>
        <time>2014-02-16T08:35:10Z</time>
      </trkpt>
      <trkpt lat="48.35645" lon="2.7258">
        <ele>102.5</ele>
        <time>2014-02-16T08:35:28Z</time>
      </trkpt>
      <trkpt lat="48.35664" lon="2.72582">
        <ele>101.34</ele>
        <time>2014-02-16T08:35:40Z</time>
      </trkpt>
      <trkpt lat="48.35649" lon="2.72598">
        <ele>113.39</ele>
        <time>2014-02-16T08:37:15Z</time>
      </trkpt>
      <trkpt lat="48.35631" lon="2.72602">
        <ele>123.33</ele>
        <time>2014-02-16T08:37:35Z</time>
      </trkpt>
      <trkpt lat="48.35613" lon="2.72603">
        <ele>121.66</ele>
        <time>2014-02-16T08:37:49Z</time>
      </trkpt>
      <trkpt lat="48.35596" lon="2.72611">
        <ele>113.58</ele>
        <time>2014-02-16T08:38:20Z</time>
      </trkpt>
      <trkpt lat="48.35583" lon="2.7263">
        <ele>113.16</ele>
        <time>2014-02-16T08:38:46Z</time>
      </trkpt>
      <trkpt lat="48.35563" lon="2.72642">
        <ele>113.17</ele>
        <time>2014-02-16T08:39:09Z</time>
      </trkpt>
      <trkpt lat="48.35555" lon="2.72666">
        <ele>104.52</ele>
        <time>2014-02-16T08:39:39Z</time>
      </trkpt>
      <trkpt lat="48.3554" lon="2.72682">
        <ele>100.21</ele>
        <time>2014-02-16T08:40:12Z</time>
      </trkpt>
      <trkpt lat="48.35529" lon="2.72704">
        <ele>95.03</ele>
        <time>2014-02-16T08:41:24Z</time>
      </trkpt>
      <trkpt lat="48.35525" lon="2.72731">
        <ele>93.71</ele>
        <time>2014-02-16T08:41:36Z</time>
      </trkpt>
      <trkpt lat="48.3552" lon="2.72758">
        <ele>93.83</ele>
        <time>2014-02-16T08:41:51Z</time>
      </trkpt>
      <trkpt lat="48.35517" lon="2.72786">
        <ele>93.32</ele>
        <time>2014-02-16T08:42:10Z</time>
      </trkpt>
      <trkpt lat="48.35511" lon="2.72814">
        <ele>91.72</ele>
        <time>2014-02-16T08:42:21Z</time>
      </trkpt>
      <trkpt lat="48.35509" lon="2.72841">
        <ele>91.44</ele>
        <time>2014-02-16T08:42:35Z</time>
      </trkpt>
      <trkpt lat="48.35507" lon="2.72869">
        <ele>93.29</ele>
        <time>2014-02-16T08:42:48Z</time>
      </trkpt>
      <trkpt lat="48.35505" lon="2.72897">
        <ele>91.37</ele>
        <time>2014-02-16T08:43:09Z</time>
      </trkpt>
      <trkpt lat="48.3549" lon="2.72912">
        <ele>89.84</ele>
        <time>2014-02-16T08:43:30Z</time>
      </trkpt>
      <trkpt lat="48.35475" lon="2.72929">
        <ele>90.19</ele>
        <time>2014-02-16T08:43:45Z</time>
      </trkpt>
      <trkpt lat="48.35438" lon="2.72975">
        <ele>89.26</ele>
        <time>2014-02-16T08:44:24Z</time>
      </trkpt>
      <trkpt lat="48.35422" lon="2.72991">
        <ele>89.1</ele>
        <time>2014-02-16T08:44:45Z</time>
      </trkpt>
      <trkpt lat="48.35409" lon="2.73011">
        <ele>88.68</ele>
        <time>2014-02-16T08:45:04Z</time>
      </trkpt>
      <trkpt lat="48.35393" lon="2.73026">
        <ele>94.44</ele>
        <time>2014-02-16T08:45:21Z</time>
      </trkpt>
      <trkpt lat="48.35378" lon="2.73042">
        <ele>95.38</ele>
        <time>2014-02-16T08:45:48Z</time>
      </trkpt>
      <trkpt lat="48.35363" lon="2.73028">
        <ele>101.13</ele>
        <time>2014-02-16T08:50:23Z</time>
      </trkpt>
      <trkpt lat="48.35349" lon="2.73046">
        <ele>103.48</ele>
        <time>2014-02-16T08:51:46Z</time>
      </trkpt>
      <trkpt lat="48.35347" lon="2.73074">
        <ele>103.59</ele>
        <time>2014-02-16T08:52:30Z</time>
      </trkpt>
      <trkpt lat="48.35353" lon="2.731">
        <ele>101</ele>
        <time>2014-02-16T08:53:03Z</time>
      </trkpt>
      <trkpt lat="48.35357" lon="2.73126">
        <ele>98.34</ele>
        <time>2014-02-16T08:53:21Z</time>
      </trkpt>
      <trkpt lat="48.35354" lon="2.73153">
        <ele>101.34</ele>
        <time>2014-02-16T08:53:39Z</time>
      </trkpt>
      <trkpt lat="48.35347" lon="2.7318">
        <ele>105.56</ele>
        <time>2014-02-16T08:54:04Z</time>
      </trkpt>
      <trkpt lat="48.35345" lon="2.73208">
        <ele>104.95</ele>
        <time>2014-02-16T08:54:20Z</time>
      </trkpt>
      <trkpt lat="48.35336" lon="2.73232">
        <ele>110.79</ele>
        <time>2014-02-16T08:54:45Z</time>
      </trkpt>
      <trkpt lat="48.35327" lon="2.73256">
        <ele>115.36</ele>
        <time>2014-02-16T08:56:12Z</time>
      </trkpt>
      <trkpt lat="48.3531" lon="2.73264">
        <ele>113.33</ele>
        <time>2014-02-16T08:56:42Z</time>
      </trkpt>
      <trkpt lat="48.35296" lon="2.73283">
        <ele>115.16</ele>
        <time>2014-02-16T08:57:10Z</time>
      </trkpt>
      <trkpt lat="48.35293" lon="2.7331">
        <ele>115.04</ele>
        <time>2014-02-16T08:57:31Z</time>
      </trkpt>
      <trkpt lat="48.35298" lon="2.73337">
        <ele>117.56</ele>
        <time>2014-02-16T08:57:48Z</time>
      </trkpt>
      <trkpt lat="48.35293" lon="2.73363">
        <ele>118.36</ele>
        <time>2014-02-16T08:58:12Z</time>
      </trkpt>
      <trkpt lat="48.3529" lon="2.73391">
        <ele>118.84</ele>
        <time>2014-02-16T08:58:56Z</time>
      </trkpt>
      <trkpt lat="48.35294" lon="2.73417">
        <ele>124.75</ele>
        <time>2014-02-16T08:59:20Z</time>
      </trkpt>
      <trkpt lat="48.35305" lon="2.73439">
        <ele>119.61</ele>
        <time>2014-02-16T08:59:49Z</time>
      </trkpt>
      <trkpt lat="48.35319" lon="2.73457">
        <ele>126</ele>
        <time>2014-02-16T09:00:09Z</time>
      </trkpt>
      <trkpt lat="48.35327" lon="2.73481">
        <ele>124.78</ele>
        <time>2014-02-16T09:00:40Z</time>
      </trkpt>
      <trkpt lat="48.3534" lon="2.73501">
        <ele>125.43</ele>
        <time>2014-02-16T09:01:01Z</time>
      </trkpt>
      <trkpt lat="48.35345" lon="2.73528">
        <ele>124.24</ele>
        <time>2014-02-16T09:01:26Z</time>
      </trkpt>
      <trkpt lat="48.35354" lon="2.73551">
        <ele>120.57</ele>
        <time>2014-02-16T09:01:53Z</time>
      </trkpt>
      <trkpt lat="48.35365" lon="2.73572">
        <ele>113.08</ele>
        <time>2014-02-16T09:02:15Z</time>
      </trkpt>
      <trkpt lat="48.35383" lon="2.73565">
        <ele>122.32</ele>
        <time>2014-02-16T09:03:12Z</time>
      </trkpt>
      <trkpt lat="48.35395" lon="2.73546">
        <ele>126.32</ele>
        <time>2014-02-16T09:04:15Z</time>
      </trkpt>
      <trkpt lat="48.354" lon="2.73518">
        <ele>133.09</ele>
        <time>2014-02-16T09:05:35Z</time>
      </trkpt>
      <trkpt lat="48.35398" lon="2.7349">
        <ele>134.57</ele>
        <time>2014-02-16T09:06:11Z</time>
      </trkpt>
      <trkpt lat="48.35403" lon="2.73463">
        <ele>136.17</ele>
        <time>2014-02-16T09:06:41Z</time>
      </trkpt>
      <trkpt lat="48.35407" lon="2.73436">
        <ele>130.72</ele>
        <time>2014-02-16T09:08:33Z</time>
      </trkpt>
      <trkpt lat="48.35422" lon="2.73452">
        <ele>125.71</ele>
        <time>2014-02-16T09:09:06Z</time>
      </trkpt>
      <trkpt lat="48.3543" lon="2.73477">
        <ele>130.41</ele>
        <time>2014-02-16T09:09:22Z</time>
      </trkpt>
      <trkpt lat="48.35439" lon="2.73502">
        <ele>128.42</ele>
        <time>2014-02-16T09:09:39Z</time>
      </trkpt>
      <trkpt lat="48.35446" lon="2.73527">
        <ele>126.44</ele>
        <time>2014-02-16T09:10:01Z</time>
      </trkpt>
      <trkpt lat="48.35458" lon="2.73549">
        <ele>129.98</ele>
        <time>2014-02-16T09:10:17Z</time>
      </trkpt>
      <trkpt lat="48.35476" lon="2.73543">
        <ele>133.49</ele>
        <time>2014-02-16T09:10:34Z</time>
      </trkpt>
      <trkpt lat="48.35494" lon="2.73536">
        <ele>129.89</ele>
        <time>2014-02-16T09:11:20Z</time>
      </trkpt>
      <trkpt lat="48.35499" lon="2.73511">
        <ele>114.88</ele>
        <time>2014-02-16T09:12:17Z</time>
      </trkpt>
      <trkpt lat="48.35518" lon="2.73512">
        <ele>108.02</ele>
        <time>2014-02-16T09:12:44Z</time>
      </trkpt>
      <trkpt lat="48.35536" lon="2.7351">
        <ele>115.04</ele>
        <time>2014-02-16T09:13:01Z</time>
      </trkpt>
      <trkpt lat="48.35549" lon="2.73489">
        <ele>116.91</ele>
        <time>2014-02-16T09:13:22Z</time>
      </trkpt>
      <trkpt lat="48.35563" lon="2.73471">
        <ele>110.49</ele>
        <time>2014-02-16T09:13:50Z</time>
      </trkpt>
      <trkpt lat="48.35576" lon="2.7345">
        <ele>111.72</ele>
        <time>2014-02-16T09:14:48Z</time>
      </trkpt>
      <trkpt lat="48.3559" lon="2.73433">
        <ele>110.94</ele>
        <time>2014-02-16T09:15:04Z</time>
      </trkpt>
      <trkpt lat="48.35606" lon="2.73418">
        <ele>112.24</ele>
        <time>2014-02-16T09:15:19Z</time>
      </trkpt>
      <trkpt lat="48.3561" lon="2.73391">
        <ele>125.88</ele>
        <time>2014-02-16T09:16:03Z</time>
      </trkpt>
      <trkpt lat="48.35592" lon="2.73385">
        <ele>131.55</ele>
        <time>2014-02-16T09:17:12Z</time>
      </trkpt>
      <trkpt lat="48.35574" lon="2.7338">
        <ele>130.81</ele>
        <time>2014-02-16T09:17:37Z</time>
      </trkpt>
      <trkpt lat="48.35556" lon="2.73373">
        <ele>127.17</ele>
        <time>2014-02-16T09:17:57Z</time>
      </trkpt>
      <trkpt lat="48.35543" lon="2.73353">
        <ele>132.06</ele>
        <time>2014-02-16T09:18:11Z</time>
      </trkpt>
      <trkpt lat="48.3555" lon="2.73328">
        <ele>131.26</ele>
        <time>2014-02-16T09:21:33Z</time>
      </trkpt>
      <trkpt lat="48.35564" lon="2.73309">
        <ele>135.37</ele>
        <time>2014-02-16T09:22:23Z</time>
      </trkpt>
      <trkpt lat="48.35557" lon="2.73284">
        <ele>136.22</ele>
        <time>2014-02-16T09:22:42Z</time>
      </trkpt>
      <trkpt lat="48.3555" lon="2.73259">
        <ele>135.94</ele>
        <time>2014-02-16T09:23:20Z</time>
      </trkpt>
      <trkpt lat="48.3556" lon="2.73235">
        <ele>132.34</ele>
        <time>2014-02-16T09:24:13Z</time>
      </trkpt>
      <trkpt lat="48.35576" lon="2.7322">
        <ele>133.41</ele>
        <time>2014-02-16T09:25:32Z</time>
      </trkpt>
      <trkpt lat="48.35576" lon="2.73193">
        <ele>133.79</ele>
        <time>2014-02-16T09:26:12Z</time>
      </trkpt>
      <trkpt lat="48.35586" lon="2.73169">
        <ele>127.11</ele>
        <time>2014-02-16T09:26:26Z</time>
      </trkpt>
      <trkpt lat="48.35595" lon="2.73144">
        <ele>123.67</ele>
        <time>2014-02-16T09:26:39Z</time>
      </trkpt>
      <trkpt lat="48.35606" lon="2.73123">
        <ele>128.77</ele>
        <time>2014-02-16T09:27:01Z</time>
      </trkpt>
      <trkpt lat="48.35624" lon="2.7312">
        <ele>130.77</ele>
        <time>2014-02-16T09:27:20Z</time>
      </trkpt>
      <trkpt lat="48.35643" lon="2.73116">
        <ele>133.26</ele>
        <time>2014-02-16T09:27:37Z</time>
      </trkpt>
      <trkpt lat="48.35657" lon="2.73098">
        <ele>129.87</ele>
        <time>2014-02-16T09:28:13Z</time>
      </trkpt>
      <trkpt lat="48.35674" lon="2.73086">
        <ele>130.69</ele>
        <time>2014-02-16T09:28:52Z</time>
      </trkpt>
      <trkpt lat="48.35691" lon="2.73078">
        <ele>133.66</ele>
        <time>2014-02-16T09:29:13Z</time>
      </trkpt>
      <trkpt lat="48.35677" lon="2.73061">
        <ele>139.06</ele>
        <time>2014-02-16T09:30:03Z</time>
      </trkpt>
      <trkpt lat="48.35693" lon="2.73048">
        <ele>135.17</ele>
        <time>2014-02-16T09:30:57Z</time>
      </trkpt>
      <trkpt lat="48.3571" lon="2.73059">
        <ele>134.84</ele>
        <time>2014-02-16T09:31:28Z</time>
      </trkpt>
      <trkpt lat="48.35697" lon="2.73079">
        <ele>140.82</ele>
        <time>2014-02-16T09:34:54Z</time>
      </trkpt>
      <trkpt lat="48.35703" lon="2.73105">
        <ele>122.16</ele>
        <time>2014-02-16T09:38:15Z</time>
      </trkpt>
      <trkpt lat="48.35717" lon="2.73124">
        <ele>121.98</ele>
        <time>2014-02-16T09:38:43Z</time>
      </trkpt>
      <trkpt lat="48.35724" lon="2.7315">
        <ele>134.31</ele>
        <time>2014-02-16T09:39:31Z</time>
      </trkpt>
      <trkpt lat="48.35734" lon="2.73173">
        <ele>127.08</ele>
        <time>2014-02-16T09:40:23Z</time>
      </trkpt>
      <trkpt lat="48.35741" lon="2.73199">
        <ele>122.75</ele>
        <time>2014-02-16T09:41:10Z</time>
      </trkpt>
      <trkpt lat="48.35749" lon="2.73224">
        <ele>113.22</ele>
        <time>2014-02-16T09:41:43Z</time>
      </trkpt>
      <trkpt lat="48.35767" lon="2.73232">
        <ele>119.34</ele>
        <time>2014-02-16T09:45:57Z</time>
      </trkpt>
      <trkpt lat="48.35784" lon="2.73241">
        <ele>113.66</ele>
        <time>2014-02-16T09:46:19Z</time>
      </trkpt>
      <trkpt lat="48.35798" lon="2.73259">
        <ele>103.4</ele>
        <time>2014-02-16T09:46:48Z</time>
      </trkpt>
      <trkpt lat="48.3581" lon="2.7328">
        <ele>103.76</ele>
        <time>2014-02-16T09:50:35Z</time>
      </trkpt>
      <trkpt lat="48.35811" lon="2.73308">
        <ele>104.34</ele>
        <time>2014-02-16T10:02:17Z</time>
      </trkpt>
      <trkpt lat="48.35808" lon="2.73335">
        <ele>106.55</ele>
        <time>2014-02-16T10:03:11Z</time>
      </trkpt>
      <trkpt lat="48.35814" lon="2.73361">
        <ele>98.83</ele>
        <time>2014-02-16T10:03:50Z</time>
      </trkpt>
      <trkpt lat="48.35819" lon="2.73388">
        <ele>99.71</ele>
        <time>2014-02-16T10:04:08Z</time>
      </trkpt>
      <trkpt lat="48.35814" lon="2.73415">
        <ele>93.2</ele>
        <time>2014-02-16T10:04:27Z</time>
      </trkpt>
      <trkpt lat="48.35796" lon="2.73421">
        <ele>99.9</ele>
        <time>2014-02-16T10:06:07Z</time>
      </trkpt>
      <trkpt lat="48.35796" lon="2.73448">
        <ele>102.47</ele>
        <time>2014-02-16T10:06:29Z</time>
      </trkpt>
      <trkpt lat="48.35788" lon="2.73472">
        <ele>107.91</ele>
        <time>2014-02-16T10:06:55Z</time>
      </trkpt>
      <trkpt lat="48.35781" lon="2.73497">
        <ele>103.29</ele>
        <time>2014-02-16T10:07:15Z</time>
      </trkpt>
      <trkpt lat="48.35774" lon="2.73472">
        <ele>113</ele>
        <time>2014-02-16T10:08:32Z</time>
      </trkpt>
      <trkpt lat="48.35759" lon="2.73486">
        <ele>124.93</ele>
        <time>2014-02-16T10:09:47Z</time>
      </trkpt>
      <trkpt lat="48.35758" lon="2.73514">
        <ele>128.65</ele>
        <time>2014-02-16T10:10:26Z</time>
      </trkpt>
      <trkpt lat="48.35749" lon="2.73539">
        <ele>126.59</ele>
        <time>2014-02-16T10:10:47Z</time>
      </trkpt>
      <trkpt lat="48.35743" lon="2.73565">
        <ele>124.05</ele>
        <time>2014-02-16T10:11:31Z</time>
      </trkpt>
      <trkpt lat="48.35742" lon="2.73592">
        <ele>124.86</ele>
        <time>2014-02-16T10:11:52Z</time>
      </trkpt>
      <trkpt lat="48.3574" lon="2.73619">
        <ele>128.27</ele>
        <time>2014-02-16T10:12:13Z</time>
      </trkpt>
      <trkpt lat="48.35739" lon="2.73646">
        <ele>128.21</ele>
        <time>2014-02-16T10:12:37Z</time>
      </trkpt>
      <trkpt lat="48.35733" lon="2.73672">
        <ele>129.18</ele>
        <time>2014-02-16T10:13:20Z</time>
      </trkpt>
      <trkpt lat="48.35733" lon="2.737">
        <ele>133.14</ele>
        <time>2014-02-16T10:13:45Z</time>
      </trkpt>
      <trkpt lat="48.35739" lon="2.73725">
        <ele>131.45</ele>
        <time>2014-02-16T10:15:11Z</time>
      </trkpt>
      <trkpt lat="48.35728" lon="2.73748">
        <ele>127.63</ele>
        <time>2014-02-16T10:15:55Z</time>
      </trkpt>
      <trkpt lat="48.35716" lon="2.73768">
        <ele>126.34</ele>
        <time>2014-02-16T10:16:29Z</time>
      </trkpt>
      <trkpt lat="48.35708" lon="2.73793">
        <ele>130.84</ele>
        <time>2014-02-16T10:17:45Z</time>
      </trkpt>
      <trkpt lat="48.35699" lon="2.73818">
        <ele>125.37</ele>
        <time>2014-02-16T10:18:23Z</time>
      </trkpt>
      <trkpt lat="48.3569" lon="2.7384">
        <ele>124.85</ele>
        <time>2014-02-16T10:19:12Z</time>
      </trkpt>
      <trkpt lat="48.35672" lon="2.73851">
        <ele>128.67</ele>
        <time>2014-02-16T10:19:37Z</time>
      </trkpt>
      <trkpt lat="48.35656" lon="2.73862">
        <ele>131.33</ele>
        <time>2014-02-16T10:20:07Z</time>
      </trkpt>
      <trkpt lat="48.35638" lon="2.73854">
        <ele>129.42</ele>
        <time>2014-02-16T10:20:29Z</time>
      </trkpt>
      <trkpt lat="48.35622" lon="2.73839">
        <ele>128.41</ele>
        <time>2014-02-16T10:20:46Z</time>
      </trkpt>
      <trkpt lat="48.35605" lon="2.73828">
        <ele>130.54</ele>
        <time>2014-02-16T10:20:59Z</time>
      </trkpt>
      <trkpt lat="48.35588" lon="2.73816">
        <ele>129.73</ele>
        <time>2014-02-16T10:21:21Z</time>
      </trkpt>
      <trkpt lat="48.35572" lon="2.73804">
        <ele>130.57</ele>
        <time>2014-02-16T10:21:53Z</time>
      </trkpt>
      <trkpt lat="48.35556" lon="2.73788">
        <ele>135.47</ele>
        <time>2014-02-16T10:22:08Z</time>
      </trkpt>
      <trkpt lat="48.35539" lon="2.73776">
        <ele>136.85</ele>
        <time>2014-02-16T10:22:22Z</time>
      </trkpt>
      <trkpt lat="48.35523" lon="2.73765">
        <ele>133.15</ele>
        <time>2014-02-16T10:22:43Z</time>
      </trkpt>
      <trkpt lat="48.35505" lon="2.73759">
        <ele>135.11</ele>
        <time>2014-02-16T10:23:10Z</time>
      </trkpt>
      <trkpt lat="48.35488" lon="2.73752">
        <ele>128.41</ele>
        <time>2014-02-16T10:23:59Z</time>
      </trkpt>
      <trkpt lat="48.35474" lon="2.7377">
        <ele>124.06</ele>
        <time>2014-02-16T10:24:38Z</time>
      </trkpt>
      <trkpt lat="48.35462" lon="2.73794">
        <ele>118.83</ele>
        <time>2014-02-16T10:24:57Z</time>
      </trkpt>
      <trkpt lat="48.35445" lon="2.73801">
        <ele>115.92</ele>
        <time>2014-02-16T10:25:17Z</time>
      </trkpt>
      <trkpt lat="48.35427" lon="2.73809">
        <ele>119.53</ele>
        <time>2014-02-16T10:25:35Z</time>
      </trkpt>
      <trkpt lat="48.35408" lon="2.7381">
        <ele>126.69</ele>
        <time>2014-02-16T10:25:54Z</time>
      </trkpt>
      <trkpt lat="48.3539" lon="2.73808">
        <ele>127.85</ele>
        <time>2014-02-16T10:26:08Z</time>
      </trkpt>
      <trkpt lat="48.3537" lon="2.73809">
        <ele>126.6</ele>
        <time>2014-02-16T10:26:26Z</time>
      </trkpt>
      <trkpt lat="48.35353" lon="2.73802">
        <ele>125.25</ele>
        <time>2014-02-16T10:26:49Z</time>
      </trkpt>
      <trkpt lat="48.35335" lon="2.73794">
        <ele>128.31</ele>
        <time>2014-02-16T10:27:30Z</time>
      </trkpt>
      <trkpt lat="48.35321" lon="2.73777">
        <ele>130.96</ele>
        <time>2014-02-16T10:27:57Z</time>
      </trkpt>
      <trkpt lat="48.35307" lon="2.73759">
        <ele>135.26</ele>
        <time>2014-02-16T10:28:13Z</time>
      </trkpt>
      <trkpt lat="48.35298" lon="2.73735">
        <ele>126.1</ele>
        <time>2014-02-16T10:28:34Z</time>
      </trkpt>
      <trkpt lat="48.35288" lon="2.73711">
        <ele>130.39</ele>
        <time>2014-02-16T10:28:50Z</time>
      </trkpt>
      <trkpt lat="48.35288" lon="2.73683">
        <ele>129.45</ele>
        <time>2014-02-16T10:29:08Z</time>
      </trkpt>
      <trkpt lat="48.35289" lon="2.73655">
        <ele>131.98</ele>
        <time>2014-02-16T10:29:23Z</time>
      </trkpt>
      <trkpt lat="48.35286" lon="2.73628">
        <ele>128.69</ele>
        <time>2014-02-16T10:29:40Z</time>
      </trkpt>
      <trkpt lat="48.35275" lon="2.73606">
        <ele>133.21</ele>
        <time>2014-02-16T10:29:55Z</time>
      </trkpt>
      <trkpt lat="48.35256" lon="2.73605">
        <ele>133.35</ele>
        <time>2014-02-16T10:30:12Z</time>
      </trkpt>
      <trkpt lat="48.35239" lon="2.73596">
        <ele>131.7</ele>
        <time>2014-02-16T10:30:42Z</time>
      </trkpt>
      <trkpt lat="48.35232" lon="2.73571">
        <ele>123.16</ele>
        <time>2014-02-16T10:31:19Z</time>
      </trkpt>
      <trkpt lat="48.35224" lon="2.73545">
        <ele>124.83</ele>
        <time>2014-02-16T10:31:42Z</time>
      </trkpt>
      <trkpt lat="48.35216" lon="2.73521">
        <ele>114.11</ele>
        <time>2014-02-16T10:32:22Z</time>
      </trkpt>
      <trkpt lat="48.352" lon="2.73507">
        <ele>122.56</ele>
        <time>2014-02-16T10:32:41Z</time>
      </trkpt>
      <trkpt lat="48.35186" lon="2.73489">
        <ele>106.73</ele>
        <time>2014-02-16T10:33:02Z</time>
      </trkpt>
      <trkpt lat="48.35175" lon="2.73467">
        <ele>109.39</ele>
        <time>2014-02-16T10:33:20Z</time>
      </trkpt>
      <trkpt lat="48.35162" lon="2.73447">
        <ele>105.73</ele>
        <time>2014-02-16T10:33:39Z</time>
      </trkpt>
      <trkpt lat="48.35148" lon="2.7343">
        <ele>111.12</ele>
        <time>2014-02-16T10:33:51Z</time>
      </trkpt>
      <trkpt lat="48.35139" lon="2.73405">
        <ele>113.16</ele>
        <time>2014-02-16T10:34:11Z</time>
      </trkpt>
      <trkpt lat="48.35139" lon="2.73377">
        <ele>105.07</ele>
        <time>2014-02-16T10:34:31Z</time>
      </trkpt>
      <trkpt lat="48.35137" lon="2.73349">
        <ele>103.8</ele>
        <time>2014-02-16T10:34:50Z</time>
      </trkpt>
      <trkpt lat="48.35137" lon="2.73321">
        <ele>99.47</ele>
        <time>2014-02-16T10:35:14Z</time>
      </trkpt>
      <trkpt lat="48.35138" lon="2.73294">
        <ele>97.87</ele>
        <time>2014-02-16T10:35:37Z</time>
      </trkpt>
      <trkpt lat="48.35142" lon="2.73267">
        <ele>94.38</ele>
        <time>2014-02-16T10:35:55Z</time>
      </trkpt>
      <trkpt lat="48.35144" lon="2.73239">
        <ele>94.61</ele>
        <time>2014-02-16T10:36:10Z</time>
      </trkpt>
      <trkpt lat="48.35147" lon="2.73211">
        <ele>99.63</ele>
        <time>2014-02-16T10:36:21Z</time>
      </trkpt>
      <trkpt lat="48.35147" lon="2.73183">
        <ele>102.61</ele>
        <time>2014-02-16T10:36:37Z</time>
      </trkpt>
      <trkpt lat="48.35148" lon="2.73155">
        <ele>97.91</ele>
        <time>2014-02-16T10:36:58Z</time>
      </trkpt>
      <trkpt lat="48.35151" lon="2.73128">
        <ele>93.36</ele>
        <time>2014-02-16T10:37:10Z</time>
      </trkpt>
      <trkpt lat="48.35154" lon="2.73101">
        <ele>95.22</ele>
        <time>2014-02-16T10:37:20Z</time>
      </trkpt>
      <trkpt lat="48.35156" lon="2.73074">
        <ele>94.63</ele>
        <time>2014-02-16T10:37:31Z</time>
      </trkpt>
      <trkpt lat="48.3516" lon="2.73046">
        <ele>92.37</ele>
        <time>2014-02-16T10:37:48Z</time>
      </trkpt>
      <trkpt lat="48.35163" lon="2.73019">
        <ele>91.34</ele>
        <time>2014-02-16T10:38:04Z</time>
      </trkpt>
      <trkpt lat="48.35162" lon="2.72992">
        <ele>92.22</ele>
        <time>2014-02-16T10:38:22Z</time>
      </trkpt>
      <trkpt lat="48.35161" lon="2.72963">
        <ele>91.37</ele>
        <time>2014-02-16T10:38:39Z</time>
      </trkpt>
      <trkpt lat="48.35163" lon="2.72936">
        <ele>88.87</ele>
        <time>2014-02-16T10:38:58Z</time>
      </trkpt>
      <trkpt lat="48.35165" lon="2.72908">
        <ele>93.17</ele>
        <time>2014-02-16T10:39:14Z</time>
      </trkpt>
      <trkpt lat="48.35166" lon="2.7288">
        <ele>94.32</ele>
        <time>2014-02-16T10:39:26Z</time>
      </trkpt>
      <trkpt lat="48.35169" lon="2.72853">
        <ele>94.83</ele>
        <time>2014-02-16T10:39:42Z</time>
      </trkpt>
      <trkpt lat="48.35172" lon="2.72825">
        <ele>91.16</ele>
        <time>2014-02-16T10:39:59Z</time>
      </trkpt>
      <trkpt lat="48.35177" lon="2.72798">
        <ele>90.87</ele>
        <time>2014-02-16T10:40:14Z</time>
      </trkpt>
      <trkpt lat="48.35183" lon="2.72772">
        <ele>91.82</ele>
        <time>2014-02-16T10:40:27Z</time>
      </trkpt>
      <trkpt lat="48.35187" lon="2.72746">
        <ele>89.63</ele>
        <time>2014-02-16T10:40:41Z</time>
      </trkpt>
      <trkpt lat="48.35187" lon="2.72718">
        <ele>86.96</ele>
        <time>2014-02-16T10:40:55Z</time>
      </trkpt>
      <trkpt lat="48.35186" lon="2.72689">
        <ele>87.23</ele>
        <time>2014-02-16T10:41:09Z</time>
      </trkpt>
      <trkpt lat="48.35185" lon="2.72661">
        <ele>89.27</ele>
        <time>2014-02-16T10:41:23Z</time>
      </trkpt>
      <trkpt lat="48.35188" lon="2.72633">
        <ele>78.84</ele>
        <time>2014-02-16T10:41:42Z</time>
      </trkpt>
      <trkpt lat="48.35189" lon="2.72605">
        <ele>80.11</ele>
        <time>2014-02-16T10:41:59Z</time>
      </trkpt>
      <trkpt lat="48.35191" lon="2.72577">
        <ele>82.28</ele>
        <time>2014-02-16T10:42:12Z</time>
      </trkpt>
      <trkpt lat="48.35191" lon="2.72549">
        <ele>83.26</ele>
        <time>2014-02-16T10:42:26Z</time>
      </trkpt>
      <trkpt lat="48.35189" lon="2.72522">
        <ele>81.18</ele>
        <time>2014-02-16T10:42:44Z</time>
      </trkpt>
      <trkpt lat="48.3519" lon="2.72495">
        <ele>78.71</ele>
        <time>2014-02-16T10:43:00Z</time>
      </trkpt>
      <trkpt lat="48.35189" lon="2.72467">
        <ele>81.81</ele>
        <time>2014-02-16T10:43:15Z</time>
      </trkpt>
      <trkpt lat="48.3519" lon="2.72438">
        <ele>77.76</ele>
        <time>2014-02-16T10:43:35Z</time>
      </trkpt>
      <trkpt lat="48.35199" lon="2.72414">
        <ele>81.97</ele>
        <time>2014-02-16T10:43:48Z</time>
      </trkpt>
      <trkpt lat="48.35205" lon="2.72387">
        <ele>80.72</ele>
        <time>2014-02-16T10:44:01Z</time>
      </trkpt>
      <trkpt lat="48.35209" lon="2.72361">
        <ele>84.3</ele>
        <time>2014-02-16T10:44:18Z</time>
      </trkpt>
      <trkpt lat="48.35215" lon="2.72335">
        <ele>90.93</ele>
        <time>2014-02-16T10:44:30Z</time>
      </trkpt>
      <trkpt lat="48.35219" lon="2.72308">
        <ele>91.05</ele>
        <time>2014-02-16T10:44:48Z</time>
      </trkpt>
      <trkpt lat="48.35228" lon="2.72284">
        <ele>87.07</ele>
        <time>2014-02-16T10:45:06Z</time>
      </trkpt>
      <trkpt lat="48.35231" lon="2.72257">
        <ele>87.77</ele>
        <time>2014-02-16T10:45:23Z</time>
      </trkpt>
      <trkpt lat="48.35241" lon="2.72233">
        <ele>86.36</ele>
        <time>2014-02-16T10:45:41Z</time>
      </trkpt>
      <trkpt lat="48.35243" lon="2.72205">
        <ele>89.47</ele>
        <time>2014-02-16T10:46:02Z</time>
      </trkpt>
      <trkpt lat="48.35253" lon="2.72182">
        <ele>88.15</ele>
        <time>2014-02-16T10:46:31Z</time>
      </trkpt>
      <trkpt lat="48.35265" lon="2.72158">
        <ele>86.04</ele>
        <time>2014-02-16T10:46:44Z</time>
      </trkpt>
      <trkpt lat="48.35275" lon="2.72135">
        <ele>87.74</ele>
        <time>2014-02-16T10:46:55Z</time>
      </trkpt>
      <trkpt lat="48.35281" lon="2.72109">
        <ele>90.54</ele>
        <time>2014-02-16T10:47:10Z</time>
      </trkpt>
      <trkpt lat="48.35285" lon="2.72082">
        <ele>93.54</ele>
        <time>2014-02-16T10:47:26Z</time>
      </trkpt>
      <trkpt lat="48.35293" lon="2.72055">
        <ele>89.63</ele>
        <time>2014-02-16T10:47:43Z</time>
      </trkpt>
      <trkpt lat="48.35309" lon="2.72039">
        <ele>81.87</ele>
        <time>2014-02-16T10:48:07Z</time>
      </trkpt>
      <trkpt lat="48.35326" lon="2.72029">
        <ele>82.98</ele>
        <time>2014-02-16T10:48:32Z</time>
      </trkpt>
      <trkpt lat="48.35344" lon="2.72028">
        <ele>84.23</ele>
        <time>2014-02-16T10:48:54Z</time>
      </trkpt>
      <trkpt lat="48.35363" lon="2.72023">
        <ele>81.82</ele>
        <time>2014-02-16T10:49:09Z</time>
      </trkpt>
      <trkpt lat="48.35381" lon="2.72022">
        <ele>81.64</ele>
        <time>2014-02-16T10:49:28Z</time>
      </trkpt>
      <trkpt lat="48.35399" lon="2.72024">
        <ele>79.17</ele>
        <time>2014-02-16T10:50:59Z</time>
      </trkpt>
      <trkpt lat="48.35419" lon="2.72023">
        <ele>82.39</ele>
        <time>2014-02-16T10:51:20Z</time>
      </trkpt>
      <trkpt lat="48.35437" lon="2.72026">
        <ele>82.36</ele>
        <time>2014-02-16T10:51:53Z</time>
      </trkpt>
      <trkpt lat="48.35456" lon="2.72022">
        <ele>82.6</ele>
        <time>2014-02-16T10:52:08Z</time>
      </trkpt>
      <trkpt lat="48.35474" lon="2.72027">
        <ele>86.4</ele>
        <time>2014-02-16T10:52:22Z</time>
      </trkpt>
      <trkpt lat="48.3549" lon="2.72041">
        <ele>88.01</ele>
        <time>2014-02-16T10:52:43Z</time>
      </trkpt>
      <trkpt lat="48.35506" lon="2.72055">
        <ele>88.59</ele>
        <time>2014-02-16T10:52:57Z</time>
      </trkpt>
      <trkpt lat="48.35518" lon="2.72078">
        <ele>91.55</ele>
        <time>2014-02-16T10:53:11Z</time>
      </trkpt>
      <trkpt lat="48.35526" lon="2.72103">
        <ele>90.12</ele>
        <time>2014-02-16T10:53:27Z</time>
      </trkpt>
      <trkpt lat="48.35531" lon="2.72131">
        <ele>86.16</ele>
        <time>2014-02-16T10:53:44Z</time>
      </trkpt>
      <trkpt lat="48.35545" lon="2.72148">
        <ele>81.74</ele>
        <time>2014-02-16T10:53:58Z</time>
      </trkpt>
      <trkpt lat="48.35556" lon="2.72172">
        <ele>81.63</ele>
        <time>2014-02-16T10:54:19Z</time>
      </trkpt>
      <trkpt lat="48.35563" lon="2.72198">
        <ele>79.68</ele>
        <time>2014-02-16T10:54:34Z</time>
      </trkpt>
      <trkpt lat="48.3557" lon="2.72223">
        <ele>82.2</ele>
        <time>2014-02-16T10:54:49Z</time>
      </trkpt>
      <trkpt lat="48.35578" lon="2.72248">
        <ele>84.63</ele>
        <time>2014-02-16T10:55:04Z</time>
      </trkpt>
      <trkpt lat="48.35583" lon="2.72276">
        <ele>83.59</ele>
        <time>2014-02-16T10:55:20Z</time>
      </trkpt>
      <trkpt lat="48.35584" lon="2.72303">
        <ele>83.47</ele>
        <time>2014-02-16T10:55:39Z</time>
      </trkpt>
      <trkpt lat="48.35582" lon="2.7233">
        <ele>87.84</ele>
        <time>2014-02-16T10:55:53Z</time>
      </trkpt>
      <trkpt lat="48.35586" lon="2.72357">
        <ele>93.92</ele>
        <time>2014-02-16T10:56:06Z</time>
      </trkpt>
      <trkpt lat="48.35586" lon="2.72385">
        <ele>91.63</ele>
        <time>2014-02-16T10:56:21Z</time>
      </trkpt>
      <trkpt lat="48.35579" lon="2.7241">
        <ele>92.5</ele>
        <time>2014-02-16T10:56:36Z</time>
      </trkpt>
      <trkpt lat="48.35585" lon="2.72436">
        <ele>93.91</ele>
        <time>2014-02-16T10:56:57Z</time>
      </trkpt>
      <trkpt lat="48.35585" lon="2.72464">
        <ele>87.93</ele>
        <time>2014-02-16T10:57:18Z</time>
      </trkpt>
      <trkpt lat="48.35583" lon="2.72491">
        <ele>98.34</ele>
        <time>2014-02-16T10:57:43Z</time>
      </trkpt>
      <trkpt lat="48.35589" lon="2.72516">
        <ele>99.47</ele>
        <time>2014-02-16T10:58:25Z</time>
      </trkpt>
      <trkpt lat="48.35579" lon="2.7254">
        <ele>103.44</ele>
        <time>2014-02-16T10:58:46Z</time>
      </trkpt>
      <trkpt lat="48.35579" lon="2.72567">
        <ele>102.09</ele>
        <time>2014-02-16T10:59:19Z</time>
      </trkpt>
      <trkpt lat="48.35562" lon="2.7258">
        <ele>98.37</ele>
        <time>2014-02-16T10:59:34Z</time>
      </trkpt>
      <trkpt lat="48.35549" lon="2.726">
        <ele>97.23</ele>
        <time>2014-02-16T10:59:51Z</time>
      </trkpt>
      <trkpt lat="48.35541" lon="2.72625">
        <ele>97.14</ele>
        <time>2014-02-16T11:00:11Z</time>
      </trkpt>
      <trkpt lat="48.35524" lon="2.72635">
        <ele>93.79</ele>
        <time>2014-02-16T11:00:30Z</time>
      </trkpt>
      <trkpt lat="48.35508" lon="2.72651">
        <ele>91.24</ele>
        <time>2014-02-16T11:00:49Z</time>
      </trkpt>
      <trkpt lat="48.35495" lon="2.72668">
        <ele>92.75</ele>
        <time>2014-02-16T11:01:01Z</time>
      </trkpt>
      <trkpt lat="48.35479" lon="2.72683">
        <ele>92.83</ele>
        <time>2014-02-16T11:01:14Z</time>
      </trkpt>
      <trkpt lat="48.35465" lon="2.727">
        <ele>90.5</ele>
        <time>2014-02-16T11:01:35Z</time>
      </trkpt>
      <trkpt lat="48.35451" lon="2.7272">
        <ele>92.71</ele>
        <time>2014-02-16T11:01:50Z</time>
      </trkpt>
      <trkpt lat="48.35436" lon="2.72736">
        <ele>90.12</ele>
        <time>2014-02-16T11:02:03Z</time>
      </trkpt>
      <trkpt lat="48.35421" lon="2.72754">
        <ele>91.96</ele>
        <time>2014-02-16T11:02:20Z</time>
      </trkpt>
      <trkpt lat="48.3541" lon="2.72775">
        <ele>91.19</ele>
        <time>2014-02-16T11:02:41Z</time>
      </trkpt>
      <trkpt lat="48.35396" lon="2.72793">
        <ele>93.29</ele>
        <time>2014-02-16T11:03:15Z</time>
      </trkpt>
      <trkpt lat="48.35398" lon="2.72821">
        <ele>88.23</ele>
        <time>2014-02-16T11:04:23Z</time>
      </trkpt>
      <trkpt lat="48.35415" lon="2.72832">
        <ele>93.87</ele>
        <time>2014-02-16T11:33:40Z</time>
      </trkpt>
      <trkpt lat="48.35398" lon="2.72821">
        <ele>94.77</ele>
        <time>2014-02-16T11:35:42Z</time>
      </trkpt>
      <trkpt lat="48.35404" lon="2.72821">
        <ele>93.34</ele>
        <time>2014-02-16T11:38:01Z</time>
      </trkpt>
      <trkpt lat="48.3539" lon="2.72805">
        <ele>97.33</ele>
        <time>2014-02-16T11:39:58Z</time>
      </trkpt>
      <trkpt lat="48.35402" lon="2.72784">
        <ele>89.11</ele>
        <time>2014-02-16T11:44:57Z</time>
      </trkpt>
      <trkpt lat="48.35412" lon="2.72761">
        <ele>83</ele>
        <time>2014-02-16T11:45:19Z</time>
      </trkpt>
      <trkpt lat="48.35407" lon="2.72734">
        <ele>90.35</ele>
        <time>2014-02-16T11:45:46Z</time>
      </trkpt>
      <trkpt lat="48.35397" lon="2.72711">
        <ele>86.67</ele>
        <time>2014-02-16T11:46:00Z</time>
      </trkpt>
      <trkpt lat="48.35389" lon="2.72686">
        <ele>83.43</ele>
        <time>2014-02-16T11:46:12Z</time>
      </trkpt>
      <trkpt lat="48.35379" lon="2.72663">
        <ele>83.07</ele>
        <time>2014-02-16T11:46:24Z</time>
      </trkpt>
      <trkpt lat="48.35368" lon="2.72641">
        <ele>89.08</ele>
        <time>2014-02-16T11:46:38Z</time>
      </trkpt>
      <trkpt lat="48.35358" lon="2.72618">
        <ele>91.55</ele>
        <time>2014-02-16T11:46:56Z</time>
      </trkpt>
      <trkpt lat="48.35347" lon="2.72594">
        <ele>84.53</ele>
        <time>2014-02-16T11:47:17Z</time>
      </trkpt>
      <trkpt lat="48.35336" lon="2.72572">
        <ele>77.02</ele>
        <time>2014-02-16T11:47:32Z</time>
      </trkpt>
      <trkpt lat="48.35326" lon="2.72549">
        <ele>74.22</ele>
        <time>2014-02-16T11:47:47Z</time>
      </trkpt>
      <trkpt lat="48.35316" lon="2.72524">
        <ele>73.56</ele>
        <time>2014-02-16T11:48:01Z</time>
      </trkpt>
      <trkpt lat="48.35307" lon="2.725">
        <ele>74.45</ele>
        <time>2014-02-16T11:48:16Z</time>
      </trkpt>
      <trkpt lat="48.35301" lon="2.72473">
        <ele>80.7</ele>
        <time>2014-02-16T11:48:34Z</time>
      </trkpt>
      <trkpt lat="48.35291" lon="2.72448">
        <ele>86.23</ele>
        <time>2014-02-16T11:48:53Z</time>
      </trkpt>
      <trkpt lat="48.3528" lon="2.72425">
        <ele>89.55</ele>
        <time>2014-02-16T11:49:05Z</time>
      </trkpt>
      <trkpt lat="48.35272" lon="2.724">
        <ele>93.01</ele>
        <time>2014-02-16T11:49:16Z</time>
      </trkpt>
      <trkpt lat="48.35264" lon="2.72375">
        <ele>93.78</ele>
        <time>2014-02-16T11:49:32Z</time>
      </trkpt>
      <trkpt lat="48.35255" lon="2.72351">
        <ele>90.94</ele>
        <time>2014-02-16T11:50:00Z</time>
      </trkpt>
      <trkpt lat="48.35244" lon="2.72325">
        <ele>88.26</ele>
        <time>2014-02-16T11:50:14Z</time>
      </trkpt>
      <trkpt lat="48.35237" lon="2.723">
        <ele>91.09</ele>
        <time>2014-02-16T11:50:31Z</time>
      </trkpt>
      <trkpt lat="48.35236" lon="2.72272">
        <ele>75.8</ele>
        <time>2014-02-16T11:50:52Z</time>
      </trkpt>
      <trkpt lat="48.35241" lon="2.72245">
        <ele>79.53</ele>
        <time>2014-02-16T11:51:07Z</time>
      </trkpt>
      <trkpt lat="48.35243" lon="2.72216">
        <ele>83.82</ele>
        <time>2014-02-16T11:51:24Z</time>
      </trkpt>
      <trkpt lat="48.3525" lon="2.7219">
        <ele>86.82</ele>
        <time>2014-02-16T11:51:41Z</time>
      </trkpt>
      <trkpt lat="48.35257" lon="2.72165">
        <ele>87.31</ele>
        <time>2014-02-16T11:51:56Z</time>
      </trkpt>
      <trkpt lat="48.35268" lon="2.72142">
        <ele>90.92</ele>
        <time>2014-02-16T11:52:13Z</time>
      </trkpt>
      <trkpt lat="48.35277" lon="2.72118">
        <ele>87.26</ele>
        <time>2014-02-16T11:52:27Z</time>
      </trkpt>
      <trkpt lat="48.35285" lon="2.72092">
        <ele>85.84</ele>
        <time>2014-02-16T11:52:45Z</time>
      </trkpt>
      <trkpt lat="48.35293" lon="2.72067">
        <ele>85.89</ele>
        <time>2014-02-16T11:53:03Z</time>
      </trkpt>
      <trkpt lat="48.353" lon="2.7204">
        <ele>79.22</ele>
        <time>2014-02-16T11:53:21Z</time>
      </trkpt>
      <trkpt lat="48.35317" lon="2.72031">
        <ele>80.15</ele>
        <time>2014-02-16T11:53:51Z</time>
      </trkpt>
      <trkpt lat="48.35336" lon="2.72037">
        <ele>85.66</ele>
        <time>2014-02-16T11:54:06Z</time>
      </trkpt>
      <trkpt lat="48.35354" lon="2.72039">
        <ele>90.28</ele>
        <time>2014-02-16T11:54:24Z</time>
      </trkpt>
      <trkpt lat="48.35371" lon="2.72028">
        <ele>80.65</ele>
        <time>2014-02-16T11:54:43Z</time>
      </trkpt>
      <trkpt lat="48.35389" lon="2.72027">
        <ele>78.54</ele>
        <time>2014-02-16T11:55:05Z</time>
      </trkpt>
      <trkpt lat="48.35409" lon="2.7203">
        <ele>81.78</ele>
        <time>2014-02-16T11:55:23Z</time>
      </trkpt>
      <trkpt lat="48.35428" lon="2.72031">
        <ele>82.9</ele>
        <time>2014-02-16T11:55:43Z</time>
      </trkpt>
      <trkpt lat="48.35446" lon="2.72034">
        <ele>81.1</ele>
        <time>2014-02-16T11:56:02Z</time>
      </trkpt>
      <trkpt lat="48.35464" lon="2.72039">
        <ele>80.5</ele>
        <time>2014-02-16T11:56:14Z</time>
      </trkpt>
      <trkpt lat="48.35483" lon="2.72045">
        <ele>80.68</ele>
        <time>2014-02-16T11:56:27Z</time>
      </trkpt>
      <trkpt lat="48.355" lon="2.72055">
        <ele>76.78</ele>
        <time>2014-02-16T11:56:39Z</time>
      </trkpt>
      <trkpt lat="48.35517" lon="2.72068">
        <ele>72.5</ele>
        <time>2014-02-16T11:56:53Z</time>
      </trkpt>
      <trkpt lat="48.35526" lon="2.72092">
        <ele>72.63</ele>
        <time>2014-02-16T11:57:08Z</time>
      </trkpt>
      <trkpt lat="48.35535" lon="2.72116">
        <ele>72.11</ele>
        <time>2014-02-16T11:57:22Z</time>
      </trkpt>
      <trkpt lat="48.35543" lon="2.7214">
        <ele>69.47</ele>
        <time>2014-02-16T11:57:40Z</time>
      </trkpt>
      <trkpt lat="48.35552" lon="2.72163">
        <ele>71.97</ele>
        <time>2014-02-16T11:57:55Z</time>
      </trkpt>
      <trkpt lat="48.35561" lon="2.72189">
        <ele>73.02</ele>
        <time>2014-02-16T11:58:11Z</time>
      </trkpt>
      <trkpt lat="48.35568" lon="2.72216">
        <ele>71.53</ele>
        <time>2014-02-16T11:58:27Z</time>
      </trkpt>
      <trkpt lat="48.35571" lon="2.72243">
        <ele>72.09</ele>
        <time>2014-02-16T11:58:42Z</time>
      </trkpt>
      <trkpt lat="48.35577" lon="2.7227">
        <ele>80.77</ele>
        <time>2014-02-16T11:58:56Z</time>
      </trkpt>
      <trkpt lat="48.3558" lon="2.72297">
        <ele>75.55</ele>
        <time>2014-02-16T11:59:12Z</time>
      </trkpt>
      <trkpt lat="48.35578" lon="2.72325">
        <ele>75.37</ele>
        <time>2014-02-16T11:59:29Z</time>
      </trkpt>
      <trkpt lat="48.3558" lon="2.72352">
        <ele>68.61</ele>
        <time>2014-02-16T11:59:46Z</time>
      </trkpt>
      <trkpt lat="48.35578" lon="2.7238">
        <ele>75.58</ele>
        <time>2014-02-16T12:00:05Z</time>
      </trkpt>
      <trkpt lat="48.3558" lon="2.72407">
        <ele>81.59</ele>
        <time>2014-02-16T12:00:16Z</time>
      </trkpt>
      <trkpt lat="48.35586" lon="2.72434">
        <ele>89.04</ele>
        <time>2014-02-16T12:00:32Z</time>
      </trkpt>
      <trkpt lat="48.35598" lon="2.72473">
        <ele>97.13</ele>
        <time>2014-02-16T12:00:55Z</time>
      </trkpt>
      <trkpt lat="48.35614" lon="2.72485">
        <ele>105.02</ele>
        <time>2014-02-16T12:01:10Z</time>
      </trkpt>
      <trkpt lat="48.35634" lon="2.72483">
        <ele>100.3</ele>
        <time>2014-02-16T12:01:30Z</time>
      </trkpt>
      <trkpt lat="48.35651" lon="2.72496">
        <ele>94.68</ele>
        <time>2014-02-16T12:01:47Z</time>
      </trkpt>
      <trkpt lat="48.35663" lon="2.72516">
        <ele>84.55</ele>
        <time>2014-02-16T12:02:06Z</time>
      </trkpt>
      <trkpt lat="48.35673" lon="2.72539">
        <ele>87.89</ele>
        <time>2014-02-16T12:02:19Z</time>
      </trkpt>
      <trkpt lat="48.35688" lon="2.72556">
        <ele>82.14</ele>
        <time>2014-02-16T12:02:40Z</time>
      </trkpt>
      <trkpt lat="48.35705" lon="2.72568">
        <ele>90.11</ele>
        <time>2014-02-16T12:03:01Z</time>
      </trkpt>
      <trkpt lat="48.35723" lon="2.72571">
        <ele>83.36</ele>
        <time>2014-02-16T12:03:24Z</time>
      </trkpt>
      <trkpt lat="48.35741" lon="2.72579">
        <ele>83.86</ele>
        <time>2014-02-16T12:03:39Z</time>
      </trkpt>
      <trkpt lat="48.35758" lon="2.72586">
        <ele>85.12</ele>
        <time>2014-02-16T12:03:55Z</time>
      </trkpt>
      <trkpt lat="48.35776" lon="2.72597">
        <ele>82.99</ele>
        <time>2014-02-16T12:04:12Z</time>
      </trkpt>
      <trkpt lat="48.35794" lon="2.72606">
        <ele>77.63</ele>
        <time>2014-02-16T12:04:27Z</time>
      </trkpt>
      <trkpt lat="48.3581" lon="2.72618">
        <ele>73.65</ele>
        <time>2014-02-16T12:04:43Z</time>
      </trkpt>
      <trkpt lat="48.35823" lon="2.72637">
        <ele>73.97</ele>
        <time>2014-02-16T12:04:58Z</time>
      </trkpt>
      <trkpt lat="48.35838" lon="2.72652">
        <ele>80.04</ele>
        <time>2014-02-16T12:05:16Z</time>
      </trkpt>
      <trkpt lat="48.35854" lon="2.72668">
        <ele>82.31</ele>
        <time>2014-02-16T12:05:30Z</time>
      </trkpt>
      <trkpt lat="48.35871" lon="2.7268">
        <ele>80.34</ele>
        <time>2014-02-16T12:05:45Z</time>
      </trkpt>
      <trkpt lat="48.35888" lon="2.72693">
        <ele>74.1</ele>
        <time>2014-02-16T12:06:06Z</time>
      </trkpt>
      <trkpt lat="48.35901" lon="2.72713">
        <ele>77.55</ele>
        <time>2014-02-16T12:06:23Z</time>
      </trkpt>
      <trkpt lat="48.35915" lon="2.72731">
        <ele>76.39</ele>
        <time>2014-02-16T12:06:40Z</time>
      </trkpt>
      <trkpt lat="48.35931" lon="2.72743">
        <ele>76.5</ele>
        <time>2014-02-16T12:06:55Z</time>
      </trkpt>
      <trkpt lat="48.35946" lon="2.72762">
        <ele>78.9</ele>
        <time>2014-02-16T12:07:11Z</time>
      </trkpt>
      <trkpt lat="48.3596" lon="2.72779">
        <ele>76.37</ele>
        <time>2014-02-16T12:07:27Z</time>
      </trkpt>
      <trkpt lat="48.35978" lon="2.72789">
        <ele>75.91</ele>
        <time>2014-02-16T12:07:41Z</time>
      </trkpt>
      <trkpt lat="48.35994" lon="2.72803">
        <ele>77.14</ele>
        <time>2014-02-16T12:07:56Z</time>
      </trkpt>
      <trkpt lat="48.36011" lon="2.72817">
        <ele>72.12</ele>
        <time>2014-02-16T12:08:13Z</time>
      </trkpt>
      <trkpt lat="48.36027" lon="2.7283">
        <ele>69.42</ele>
        <time>2014-02-16T12:08:30Z</time>
      </trkpt>
      <trkpt lat="48.36041" lon="2.72849">
        <ele>70.81</ele>
        <time>2014-02-16T12:08:44Z</time>
      </trkpt>
      <trkpt lat="48.36058" lon="2.7286">
        <ele>72.1</ele>
        <time>2014-02-16T12:08:57Z</time>
      </trkpt>
      <trkpt lat="48.36075" lon="2.72873">
        <ele>73.71</ele>
        <time>2014-02-16T12:09:12Z</time>
      </trkpt>
      <trkpt lat="48.3609" lon="2.72891">
        <ele>71.35</ele>
        <time>2014-02-16T12:09:28Z</time>
      </trkpt>
      <trkpt lat="48.36105" lon="2.72909">
        <ele>74.47</ele>
        <time>2014-02-16T12:09:43Z</time>
      </trkpt>
      <trkpt lat="48.36122" lon="2.72922">
        <ele>79.01</ele>
        <time>2014-02-16T12:09:56Z</time>
      </trkpt>
      <trkpt lat="48.36138" lon="2.72933">
        <ele>73.76</ele>
        <time>2014-02-16T12:10:12Z</time>
      </trkpt>
      <trkpt lat="48.36155" lon="2.72948">
        <ele>72.34</ele>
        <time>2014-02-16T12:10:28Z</time>
      </trkpt>
      <trkpt lat="48.3617" lon="2.72964">
        <ele>68.48</ele>
        <time>2014-02-16T12:10:48Z</time>
      </trkpt>
      <trkpt lat="48.36185" lon="2.72978">
        <ele>72.08</ele>
        <time>2014-02-16T12:11:03Z</time>
      </trkpt>
      <trkpt lat="48.36202" lon="2.72992">
        <ele>73.45</ele>
        <time>2014-02-16T12:11:18Z</time>
      </trkpt>
      <trkpt lat="48.36218" lon="2.73008">
        <ele>74.08</ele>
        <time>2014-02-16T12:11:37Z</time>
      </trkpt>
      <trkpt lat="48.36234" lon="2.73023">
        <ele>73.35</ele>
        <time>2014-02-16T12:11:51Z</time>
      </trkpt>
      <trkpt lat="48.3625" lon="2.73036">
        <ele>73.06</ele>
        <time>2014-02-16T12:12:05Z</time>
      </trkpt>
      <trkpt lat="48.36266" lon="2.73051">
        <ele>73.78</ele>
        <time>2014-02-16T12:12:17Z</time>
      </trkpt>
      <trkpt lat="48.3628" lon="2.7307">
        <ele>78.84</ele>
        <time>2014-02-16T12:12:31Z</time>
      </trkpt>
      <trkpt lat="48.36296" lon="2.73084">
        <ele>80.57</ele>
        <time>2014-02-16T12:12:45Z</time>
      </trkpt>
      <trkpt lat="48.36312" lon="2.73099">
        <ele>82.22</ele>
        <time>2014-02-16T12:13:00Z</time>
      </trkpt>
      <trkpt lat="48.36328" lon="2.73115">
        <ele>82.35</ele>
        <time>2014-02-16T12:13:15Z</time>
      </trkpt>
      <trkpt lat="48.36343" lon="2.73132">
        <ele>80.95</ele>
        <time>2014-02-16T12:13:31Z</time>
      </trkpt>
      <trkpt lat="48.36359" lon="2.73148">
        <ele>77.22</ele>
        <time>2014-02-16T12:13:48Z</time>
      </trkpt>
      <trkpt lat="48.36373" lon="2.73165">
        <ele>80.93</ele>
        <time>2014-02-16T12:14:05Z</time>
      </trkpt>
      <trkpt lat="48.36378" lon="2.73191">
        <ele>85.96</ele>
        <time>2014-02-16T12:14:22Z</time>
      </trkpt>
      <trkpt lat="48.36375" lon="2.73218">
        <ele>88.31</ele>
        <time>2014-02-16T12:14:35Z</time>
      </trkpt>
      <trkpt lat="48.36373" lon="2.73245">
        <ele>88.31</ele>
        <time>2014-02-16T12:14:51Z</time>
      </trkpt>
      <trkpt lat="48.36371" lon="2.73272">
        <ele>91.28</ele>
        <time>2014-02-16T12:15:13Z</time>
      </trkpt>
      <trkpt lat="48.36368" lon="2.733">
        <ele>93.27</ele>
        <time>2014-02-16T12:15:27Z</time>
      </trkpt>
      <trkpt lat="48.36366" lon="2.73327">
        <ele>93.33</ele>
        <time>2014-02-16T12:15:41Z</time>
      </trkpt>
      <trkpt lat="48.36363" lon="2.73354">
        <ele>90.34</ele>
        <time>2014-02-16T12:15:57Z</time>
      </trkpt>
      <trkpt lat="48.36359" lon="2.73381">
        <ele>90.44</ele>
        <time>2014-02-16T12:16:12Z</time>
      </trkpt>
      <trkpt lat="48.36358" lon="2.73408">
        <ele>90.84</ele>
        <time>2014-02-16T12:16:27Z</time>
      </trkpt>
      <trkpt lat="48.36354" lon="2.73436">
        <ele>90.74</ele>
        <time>2014-02-16T12:16:46Z</time>
      </trkpt>
      <trkpt lat="48.36351" lon="2.73464">
        <ele>91.35</ele>
        <time>2014-02-16T12:17:00Z</time>
      </trkpt>
      <trkpt lat="48.3635" lon="2.73492">
        <ele>90.72</ele>
        <time>2014-02-16T12:17:16Z</time>
      </trkpt>
      <trkpt lat="48.36347" lon="2.73519">
        <ele>89.85</ele>
        <time>2014-02-16T12:17:33Z</time>
      </trkpt>
      <trkpt lat="48.36343" lon="2.73547">
        <ele>89.11</ele>
        <time>2014-02-16T12:17:48Z</time>
      </trkpt>
      <trkpt lat="48.3634" lon="2.73575">
        <ele>91.81</ele>
        <time>2014-02-16T12:18:02Z</time>
      </trkpt>
      <trkpt lat="48.36339" lon="2.73602">
        <ele>90.43</ele>
        <time>2014-02-16T12:18:17Z</time>
      </trkpt>
      <trkpt lat="48.36337" lon="2.73629">
        <ele>87.56</ele>
        <time>2014-02-16T12:18:37Z</time>
      </trkpt>
      <trkpt lat="48.36334" lon="2.73656">
        <ele>88.39</ele>
        <time>2014-02-16T12:18:52Z</time>
      </trkpt>
      <trkpt lat="48.3633" lon="2.73684">
        <ele>88.59</ele>
        <time>2014-02-16T12:19:06Z</time>
      </trkpt>
      <trkpt lat="48.36326" lon="2.73711">
        <ele>89.84</ele>
        <time>2014-02-16T12:19:19Z</time>
      </trkpt>
      <trkpt lat="48.3632" lon="2.73737">
        <ele>90.71</ele>
        <time>2014-02-16T12:19:33Z</time>
      </trkpt>
      <trkpt lat="48.36309" lon="2.73759">
        <ele>91.34</ele>
        <time>2014-02-16T12:19:51Z</time>
      </trkpt>
      <trkpt lat="48.36297" lon="2.7378">
        <ele>88.14</ele>
        <time>2014-02-16T12:20:15Z</time>
      </trkpt>
      <trkpt lat="48.36285" lon="2.73804">
        <ele>87.41</ele>
        <time>2014-02-16T12:20:27Z</time>
      </trkpt>
      <trkpt lat="48.36274" lon="2.73825">
        <ele>87.4</ele>
        <time>2014-02-16T12:20:43Z</time>
      </trkpt>
      <trkpt lat="48.36263" lon="2.73846">
        <ele>85.74</ele>
        <time>2014-02-16T12:20:58Z</time>
      </trkpt>
      <trkpt lat="48.36249" lon="2.73864">
        <ele>85.84</ele>
        <time>2014-02-16T12:21:13Z</time>
      </trkpt>
      <trkpt lat="48.36236" lon="2.73883">
        <ele>86.34</ele>
        <time>2014-02-16T12:21:28Z</time>
      </trkpt>
      <trkpt lat="48.36226" lon="2.73907">
        <ele>88.09</ele>
        <time>2014-02-16T12:21:43Z</time>
      </trkpt>
      <trkpt lat="48.36219" lon="2.73933">
        <ele>89.81</ele>
        <time>2014-02-16T12:22:01Z</time>
      </trkpt>
      <trkpt lat="48.36213" lon="2.7396">
        <ele>92.07</ele>
        <time>2014-02-16T12:22:19Z</time>
      </trkpt>
      <trkpt lat="48.36207" lon="2.73987">
        <ele>92.42</ele>
        <time>2014-02-16T12:22:33Z</time>
      </trkpt>
      <trkpt lat="48.36201" lon="2.74013">
        <ele>93.28</ele>
        <time>2014-02-16T12:22:48Z</time>
      </trkpt>
      <trkpt lat="48.36196" lon="2.7404">
        <ele>94.57</ele>
        <time>2014-02-16T12:23:16Z</time>
      </trkpt>
      <trkpt lat="48.36191" lon="2.74066">
        <ele>95.33</ele>
        <time>2014-02-16T12:23:28Z</time>
      </trkpt>
      <trkpt lat="48.36186" lon="2.74094">
        <ele>97.55</ele>
        <time>2014-02-16T12:23:43Z</time>
      </trkpt>
      <trkpt lat="48.36179" lon="2.74119">
        <ele>96.31</ele>
        <time>2014-02-16T12:23:59Z</time>
      </trkpt>
      <trkpt lat="48.36174" lon="2.74146">
        <ele>99.33</ele>
        <time>2014-02-16T12:24:17Z</time>
      </trkpt>
      <trkpt lat="48.36168" lon="2.74172">
        <ele>99.38</ele>
        <time>2014-02-16T12:24:34Z</time>
      </trkpt>
      <trkpt lat="48.36164" lon="2.742">
        <ele>99.97</ele>
        <time>2014-02-16T12:24:56Z</time>
      </trkpt>
      <trkpt lat="48.36159" lon="2.74227">
        <ele>103.2</ele>
        <time>2014-02-16T12:25:12Z</time>
      </trkpt>
      <trkpt lat="48.36157" lon="2.74255">
        <ele>101.34</ele>
        <time>2014-02-16T12:25:36Z</time>
      </trkpt>
      <trkpt lat="48.36155" lon="2.74283">
        <ele>105.75</ele>
        <time>2014-02-16T12:25:56Z</time>
      </trkpt>
      <trkpt lat="48.3615" lon="2.7431">
        <ele>110.08</ele>
        <time>2014-02-16T12:26:12Z</time>
      </trkpt>
      <trkpt lat="48.36146" lon="2.74338">
        <ele>117</ele>
        <time>2014-02-16T12:26:31Z</time>
      </trkpt>
      <trkpt lat="48.36143" lon="2.74365">
        <ele>118.34</ele>
        <time>2014-02-16T12:26:50Z</time>
      </trkpt>
      <trkpt lat="48.36143" lon="2.74392">
        <ele>117.04</ele>
        <time>2014-02-16T12:27:13Z</time>
      </trkpt>
      <trkpt lat="48.36138" lon="2.74418">
        <ele>119.91</ele>
        <time>2014-02-16T12:27:28Z</time>
      </trkpt>
      <trkpt lat="48.36133" lon="2.74445">
        <ele>120.65</ele>
        <time>2014-02-16T12:27:45Z</time>
      </trkpt>
      <trkpt lat="48.36132" lon="2.74473">
        <ele>121.58</ele>
        <time>2014-02-16T12:28:05Z</time>
      </trkpt>
      <trkpt lat="48.36129" lon="2.745">
        <ele>122.32</ele>
        <time>2014-02-16T12:28:23Z</time>
      </trkpt>
      <trkpt lat="48.36127" lon="2.74529">
        <ele>125.31</ele>
        <time>2014-02-16T12:28:41Z</time>
      </trkpt>
      <trkpt lat="48.36128" lon="2.74556">
        <ele>126.51</ele>
        <time>2014-02-16T12:28:57Z</time>
      </trkpt>
      <trkpt lat="48.36131" lon="2.74584">
        <ele>125.1</ele>
        <time>2014-02-16T12:29:14Z</time>
      </trkpt>
      <trkpt lat="48.36134" lon="2.74611">
        <ele>124.09</ele>
        <time>2014-02-16T12:29:31Z</time>
      </trkpt>
      <trkpt lat="48.36139" lon="2.74637">
        <ele>123.75</ele>
        <time>2014-02-16T12:29:49Z</time>
      </trkpt>
      <trkpt lat="48.36142" lon="2.74664">
        <ele>122.38</ele>
        <time>2014-02-16T12:30:05Z</time>
      </trkpt>
      <trkpt lat="48.36144" lon="2.74691">
        <ele>127.31</ele>
        <time>2014-02-16T12:30:19Z</time>
      </trkpt>
      <trkpt lat="48.36156" lon="2.74712">
        <ele>124.41</ele>
        <time>2014-02-16T12:30:35Z</time>
      </trkpt>
      <trkpt lat="48.36166" lon="2.74735">
        <ele>121.77</ele>
        <time>2014-02-16T12:34:21Z</time>
      </trkpt>
      <trkpt lat="48.36182" lon="2.74751">
        <ele>124.74</ele>
        <time>2014-02-16T12:34:32Z</time>
      </trkpt>
      <trkpt lat="48.362" lon="2.74757">
        <ele>127.44</ele>
        <time>2014-02-16T12:35:04Z</time>
      </trkpt>
      <trkpt lat="48.36218" lon="2.74751">
        <ele>119.15</ele>
        <time>2014-02-16T12:35:23Z</time>
      </trkpt>
      <trkpt lat="48.36229" lon="2.74729">
        <ele>119.46</ele>
        <time>2014-02-16T12:35:57Z</time>
      </trkpt>
      <trkpt lat="48.36216" lon="2.7471">
        <ele>117.58</ele>
        <time>2014-02-16T12:36:21Z</time>
      </trkpt>
      <trkpt lat="48.36206" lon="2.74685">
        <ele>107.88</ele>
        <time>2014-02-16T12:37:44Z</time>
      </trkpt>
      <trkpt lat="48.36203" lon="2.74658">
        <ele>99.98</ele>
        <time>2014-02-16T12:38:05Z</time>
      </trkpt>
      <trkpt lat="48.36215" lon="2.74637">
        <ele>103.34</ele>
        <time>2014-02-16T12:38:49Z</time>
      </trkpt>
      <trkpt lat="48.36231" lon="2.74623">
        <ele>103.27</ele>
        <time>2014-02-16T12:39:00Z</time>
      </trkpt>
      <trkpt lat="48.36246" lon="2.74607">
        <ele>102.12</ele>
        <time>2014-02-16T12:39:15Z</time>
      </trkpt>
      <trkpt lat="48.36261" lon="2.74591">
        <ele>104.7</ele>
        <time>2014-02-16T12:39:35Z</time>
      </trkpt>
      <trkpt lat="48.36276" lon="2.74574">
        <ele>101.94</ele>
        <time>2014-02-16T12:39:55Z</time>
      </trkpt>
      <trkpt lat="48.36291" lon="2.74559">
        <ele>103.29</ele>
        <time>2014-02-16T12:40:14Z</time>
      </trkpt>
      <trkpt lat="48.36306" lon="2.74541">
        <ele>101.44</ele>
        <time>2014-02-16T12:40:32Z</time>
      </trkpt>
      <trkpt lat="48.36323" lon="2.7453">
        <ele>97.25</ele>
        <time>2014-02-16T12:41:43Z</time>
      </trkpt>
      <trkpt lat="48.36341" lon="2.74528">
        <ele>97.45</ele>
        <time>2014-02-16T12:42:05Z</time>
      </trkpt>
      <trkpt lat="48.3636" lon="2.74527">
        <ele>101.34</ele>
        <time>2014-02-16T12:42:21Z</time>
      </trkpt>
      <trkpt lat="48.36379" lon="2.74525">
        <ele>107.77</ele>
        <time>2014-02-16T12:42:37Z</time>
      </trkpt>
      <trkpt lat="48.36398" lon="2.74522">
        <ele>105.62</ele>
        <time>2014-02-16T12:42:51Z</time>
      </trkpt>
      <trkpt lat="48.36417" lon="2.74517">
        <ele>104.27</ele>
        <time>2014-02-16T12:43:09Z</time>
      </trkpt>
      <trkpt lat="48.36435" lon="2.74513">
        <ele>103.42</ele>
        <time>2014-02-16T12:43:25Z</time>
      </trkpt>
      <trkpt lat="48.36453" lon="2.7451">
        <ele>98.51</ele>
        <time>2014-02-16T12:43:43Z</time>
      </trkpt>
      <trkpt lat="48.36472" lon="2.74504">
        <ele>90.76</ele>
        <time>2014-02-16T12:44:02Z</time>
      </trkpt>
      <trkpt lat="48.3649" lon="2.74502">
        <ele>84.98</ele>
        <time>2014-02-16T12:44:19Z</time>
      </trkpt>
      <trkpt lat="48.36509" lon="2.74499">
        <ele>87.75</ele>
        <time>2014-02-16T12:44:36Z</time>
      </trkpt>
      <trkpt lat="48.36528" lon="2.74494">
        <ele>90.54</ele>
        <time>2014-02-16T12:44:47Z</time>
      </trkpt>
      <trkpt lat="48.36547" lon="2.7449">
        <ele>90.87</ele>
        <time>2014-02-16T12:45:04Z</time>
      </trkpt>
      <trkpt lat="48.36565" lon="2.74486">
        <ele>88.91</ele>
        <time>2014-02-16T12:45:17Z</time>
      </trkpt>
      <trkpt lat="48.36583" lon="2.74482">
        <ele>91.09</ele>
        <time>2014-02-16T12:45:31Z</time>
      </trkpt>
      <trkpt lat="48.36602" lon="2.74478">
        <ele>90.37</ele>
        <time>2014-02-16T12:45:50Z</time>
      </trkpt>
      <trkpt lat="48.3662" lon="2.74474">
        <ele>85.84</ele>
        <time>2014-02-16T12:46:07Z</time>
      </trkpt>
      <trkpt lat="48.36639" lon="2.74472">
        <ele>91.07</ele>
        <time>2014-02-16T12:47:36Z</time>
      </trkpt>
      <trkpt lat="48.36657" lon="2.74468">
        <ele>89.54</ele>
        <time>2014-02-16T12:47:54Z</time>
      </trkpt>
      <trkpt lat="48.36675" lon="2.7446">
        <ele>87.32</ele>
        <time>2014-02-16T12:48:11Z</time>
      </trkpt>
      <trkpt lat="48.36693" lon="2.74459">
        <ele>91.04</ele>
        <time>2014-02-16T12:48:31Z</time>
      </trkpt>
      <trkpt lat="48.36711" lon="2.74462">
        <ele>98.5</ele>
        <time>2014-02-16T12:48:45Z</time>
      </trkpt>
      <trkpt lat="48.36729" lon="2.74469">
        <ele>103.23</ele>
        <time>2014-02-16T12:49:05Z</time>
      </trkpt>
      <trkpt lat="48.36747" lon="2.74473">
        <ele>101.96</ele>
        <time>2014-02-16T12:49:25Z</time>
      </trkpt>
      <trkpt lat="48.36765" lon="2.74477">
        <ele>105.41</ele>
        <time>2014-02-16T12:49:41Z</time>
      </trkpt>
      <trkpt lat="48.36783" lon="2.7448">
        <ele>109.02</ele>
        <time>2014-02-16T12:49:59Z</time>
      </trkpt>
      <trkpt lat="48.36802" lon="2.74481">
        <ele>112.48</ele>
        <time>2014-02-16T12:50:23Z</time>
      </trkpt>
      <trkpt lat="48.36821" lon="2.74479">
        <ele>113.02</ele>
        <time>2014-02-16T12:50:49Z</time>
      </trkpt>
      <trkpt lat="48.36839" lon="2.74475">
        <ele>116.41</ele>
        <time>2014-02-16T12:51:20Z</time>
      </trkpt>
      <trkpt lat="48.36854" lon="2.7446">
        <ele>114.6</ele>
        <time>2014-02-16T12:51:51Z</time>
      </trkpt>
      <trkpt lat="48.36867" lon="2.74441">
        <ele>115.26</ele>
        <time>2014-02-16T12:52:11Z</time>
      </trkpt>
      <trkpt lat="48.36884" lon="2.74452">
        <ele>118.31</ele>
        <time>2014-02-16T12:54:58Z</time>
      </trkpt>
      <trkpt lat="48.36902" lon="2.74458">
        <ele>122.34</ele>
        <time>2014-02-16T12:55:17Z</time>
      </trkpt>
      <trkpt lat="48.3692" lon="2.74462">
        <ele>118.28</ele>
        <time>2014-02-16T12:55:40Z</time>
      </trkpt>
      <trkpt lat="48.36939" lon="2.74457">
        <ele>118.69</ele>
        <time>2014-02-16T12:55:56Z</time>
      </trkpt>
      <trkpt lat="48.36957" lon="2.74455">
        <ele>119.17</ele>
        <time>2014-02-16T12:56:14Z</time>
      </trkpt>
      <trkpt lat="48.36964" lon="2.7443">
        <ele>121.87</ele>
        <time>2014-02-16T12:56:29Z</time>
      </trkpt>
      <trkpt lat="48.36963" lon="2.74403">
        <ele>121.3</ele>
        <time>2014-02-16T12:56:50Z</time>
      </trkpt>
      <trkpt lat="48.36964" lon="2.74374">
        <ele>119.59</ele>
        <time>2014-02-16T12:57:10Z</time>
      </trkpt>
      <trkpt lat="48.36962" lon="2.74345">
        <ele>117.25</ele>
        <time>2014-02-16T12:57:29Z</time>
      </trkpt>
      <trkpt lat="48.36959" lon="2.74317">
        <ele>119.61</ele>
        <time>2014-02-16T12:57:44Z</time>
      </trkpt>
      <trkpt lat="48.36954" lon="2.74291">
        <ele>122.26</ele>
        <time>2014-02-16T12:57:57Z</time>
      </trkpt>
      <trkpt lat="48.36954" lon="2.74263">
        <ele>125.32</ele>
        <time>2014-02-16T12:58:12Z</time>
      </trkpt>
      <trkpt lat="48.36956" lon="2.74236">
        <ele>127.95</ele>
        <time>2014-02-16T12:58:25Z</time>
      </trkpt>
      <trkpt lat="48.3696" lon="2.74209">
        <ele>126.07</ele>
        <time>2014-02-16T12:58:44Z</time>
      </trkpt>
      <trkpt lat="48.36967" lon="2.74182">
        <ele>126.01</ele>
        <time>2014-02-16T12:58:59Z</time>
      </trkpt>
      <trkpt lat="48.36973" lon="2.74156">
        <ele>127.26</ele>
        <time>2014-02-16T12:59:17Z</time>
      </trkpt>
      <trkpt lat="48.36977" lon="2.74129">
        <ele>121.12</ele>
        <time>2014-02-16T12:59:30Z</time>
      </trkpt>
      <trkpt lat="48.36982" lon="2.74102">
        <ele>118.67</ele>
        <time>2014-02-16T12:59:46Z</time>
      </trkpt>
      <trkpt lat="48.36982" lon="2.74073">
        <ele>119.07</ele>
        <time>2014-02-16T13:00:02Z</time>
      </trkpt>
      <trkpt lat="48.3698" lon="2.74045">
        <ele>122.9</ele>
        <time>2014-02-16T13:00:18Z</time>
      </trkpt>
      <trkpt lat="48.36981" lon="2.74017">
        <ele>122.62</ele>
        <time>2014-02-16T13:00:36Z</time>
      </trkpt>
      <trkpt lat="48.36981" lon="2.73989">
        <ele>123.03</ele>
        <time>2014-02-16T13:00:51Z</time>
      </trkpt>
      <trkpt lat="48.36982" lon="2.73961">
        <ele>121</ele>
        <time>2014-02-16T13:01:11Z</time>
      </trkpt>
      <trkpt lat="48.36984" lon="2.73933">
        <ele>117.11</ele>
        <time>2014-02-16T13:01:28Z</time>
      </trkpt>
      <trkpt lat="48.36984" lon="2.73905">
        <ele>118.97</ele>
        <time>2014-02-16T13:01:45Z</time>
      </trkpt>
      <trkpt lat="48.36983" lon="2.73877">
        <ele>117.42</ele>
        <time>2014-02-16T13:01:59Z</time>
      </trkpt>
      <trkpt lat="48.36981" lon="2.73848">
        <ele>118.57</ele>
        <time>2014-02-16T13:02:14Z</time>
      </trkpt>
      <trkpt lat="48.36984" lon="2.73821">
        <ele>124.49</ele>
        <time>2014-02-16T13:02:29Z</time>
      </trkpt>
      <trkpt lat="48.36966" lon="2.73816">
        <ele>128.8</ele>
        <time>2014-02-16T13:03:28Z</time>
      </trkpt>
      <trkpt lat="48.36948" lon="2.7381">
        <ele>122.59</ele>
        <time>2014-02-16T13:03:48Z</time>
      </trkpt>
      <trkpt lat="48.36967" lon="2.73813">
        <ele>121.93</ele>
        <time>2014-02-16T13:06:24Z</time>
      </trkpt>
      <trkpt lat="48.36981" lon="2.73795">
        <ele>121.37</ele>
        <time>2014-02-16T13:06:52Z</time>
      </trkpt>
      <trkpt lat="48.36983" lon="2.73768">
        <ele>111.37</ele>
        <time>2014-02-16T13:07:13Z</time>
      </trkpt>
      <trkpt lat="48.36968" lon="2.7375">
        <ele>100.22</ele>
        <time>2014-02-16T13:07:39Z</time>
      </trkpt>
      <trkpt lat="48.36952" lon="2.73738">
        <ele>98.57</ele>
        <time>2014-02-16T13:07:59Z</time>
      </trkpt>
      <trkpt lat="48.36937" lon="2.73723">
        <ele>101.74</ele>
        <time>2014-02-16T13:08:15Z</time>
      </trkpt>
      <trkpt lat="48.3692" lon="2.73709">
        <ele>95.46</ele>
        <time>2014-02-16T13:08:32Z</time>
      </trkpt>
      <trkpt lat="48.36906" lon="2.73692">
        <ele>95.36</ele>
        <time>2014-02-16T13:08:47Z</time>
      </trkpt>
      <trkpt lat="48.36893" lon="2.73673">
        <ele>94.15</ele>
        <time>2014-02-16T13:09:03Z</time>
      </trkpt>
      <trkpt lat="48.36879" lon="2.73655">
        <ele>87.41</ele>
        <time>2014-02-16T13:09:23Z</time>
      </trkpt>
      <trkpt lat="48.36862" lon="2.7364">
        <ele>85.29</ele>
        <time>2014-02-16T13:09:37Z</time>
      </trkpt>
      <trkpt lat="48.36847" lon="2.73623">
        <ele>85.02</ele>
        <time>2014-02-16T13:09:51Z</time>
      </trkpt>
      <trkpt lat="48.36834" lon="2.73604">
        <ele>84.65</ele>
        <time>2014-02-16T13:10:02Z</time>
      </trkpt>
      <trkpt lat="48.36818" lon="2.73589">
        <ele>83.3</ele>
        <time>2014-02-16T13:10:21Z</time>
      </trkpt>
      <trkpt lat="48.36804" lon="2.73572">
        <ele>82</ele>
        <time>2014-02-16T13:10:36Z</time>
      </trkpt>
      <trkpt lat="48.36791" lon="2.73553">
        <ele>79.35</ele>
        <time>2014-02-16T13:10:48Z</time>
      </trkpt>
      <trkpt lat="48.36776" lon="2.73535">
        <ele>81.41</ele>
        <time>2014-02-16T13:11:02Z</time>
      </trkpt>
      <trkpt lat="48.36763" lon="2.73517">
        <ele>94.47</ele>
        <time>2014-02-16T13:13:23Z</time>
      </trkpt>
      <trkpt lat="48.36746" lon="2.73504">
        <ele>90</ele>
        <time>2014-02-16T13:13:49Z</time>
      </trkpt>
      <trkpt lat="48.36729" lon="2.73491">
        <ele>92.05</ele>
        <time>2014-02-16T13:14:13Z</time>
      </trkpt>
      <trkpt lat="48.36716" lon="2.73472">
        <ele>83.16</ele>
        <time>2014-02-16T13:14:39Z</time>
      </trkpt>
      <trkpt lat="48.367" lon="2.73458">
        <ele>81.28</ele>
        <time>2014-02-16T13:14:52Z</time>
      </trkpt>
      <trkpt lat="48.36684" lon="2.73444">
        <ele>80.99</ele>
        <time>2014-02-16T13:15:13Z</time>
      </trkpt>
      <trkpt lat="48.36668" lon="2.73429">
        <ele>69.85</ele>
        <time>2014-02-16T13:15:34Z</time>
      </trkpt>
      <trkpt lat="48.36653" lon="2.73414">
        <ele>73.58</ele>
        <time>2014-02-16T13:15:47Z</time>
      </trkpt>
      <trkpt lat="48.36637" lon="2.73402">
        <ele>78.76</ele>
        <time>2014-02-16T13:16:00Z</time>
      </trkpt>
      <trkpt lat="48.36621" lon="2.73386">
        <ele>83.06</ele>
        <time>2014-02-16T13:16:13Z</time>
      </trkpt>
      <trkpt lat="48.36605" lon="2.73373">
        <ele>91.84</ele>
        <time>2014-02-16T13:16:34Z</time>
      </trkpt>
      <trkpt lat="48.36591" lon="2.73354">
        <ele>93.18</ele>
        <time>2014-02-16T13:16:47Z</time>
      </trkpt>
      <trkpt lat="48.36575" lon="2.73341">
        <ele>91.37</ele>
        <time>2014-02-16T13:17:00Z</time>
      </trkpt>
      <trkpt lat="48.36558" lon="2.73332">
        <ele>87.34</ele>
        <time>2014-02-16T13:17:18Z</time>
      </trkpt>
      <trkpt lat="48.36544" lon="2.73313">
        <ele>81.16</ele>
        <time>2014-02-16T13:17:40Z</time>
      </trkpt>
      <trkpt lat="48.36529" lon="2.733">
        <ele>81.31</ele>
        <time>2014-02-16T13:17:53Z</time>
      </trkpt>
      <trkpt lat="48.36513" lon="2.73286">
        <ele>79.79</ele>
        <time>2014-02-16T13:18:05Z</time>
      </trkpt>
      <trkpt lat="48.36497" lon="2.73268">
        <ele>84.09</ele>
        <time>2014-02-16T13:18:17Z</time>
      </trkpt>
      <trkpt lat="48.36481" lon="2.73254">
        <ele>83.15</ele>
        <time>2014-02-16T13:18:30Z</time>
      </trkpt>
      <trkpt lat="48.36465" lon="2.73239">
        <ele>82.31</ele>
        <time>2014-02-16T13:18:46Z</time>
      </trkpt>
      <trkpt lat="48.36449" lon="2.73224">
        <ele>83.33</ele>
        <time>2014-02-16T13:19:03Z</time>
      </trkpt>
      <trkpt lat="48.36432" lon="2.73213">
        <ele>77.96</ele>
        <time>2014-02-16T13:19:20Z</time>
      </trkpt>
      <trkpt lat="48.36416" lon="2.73197">
        <ele>79.34</ele>
        <time>2014-02-16T13:19:34Z</time>
      </trkpt>
      <trkpt lat="48.364" lon="2.73182">
        <ele>82.11</ele>
        <time>2014-02-16T13:19:47Z</time>
      </trkpt>
      <trkpt lat="48.36387" lon="2.73163">
        <ele>86.59</ele>
        <time>2014-02-16T13:20:34Z</time>
      </trkpt>
      <trkpt lat="48.36391" lon="2.73136">
        <ele>73.9</ele>
        <time>2014-02-16T13:20:56Z</time>
      </trkpt>
      <trkpt lat="48.3639" lon="2.73108">
        <ele>72.31</ele>
        <time>2014-02-16T13:21:14Z</time>
      </trkpt>
      <trkpt lat="48.36394" lon="2.73081">
        <ele>74.52</ele>
        <time>2014-02-16T13:21:34Z</time>
      </trkpt>
      <trkpt lat="48.36397" lon="2.73054">
        <ele>72.1</ele>
        <time>2014-02-16T13:21:51Z</time>
      </trkpt>
      <trkpt lat="48.36399" lon="2.73026">
        <ele>74.03</ele>
        <time>2014-02-16T13:22:05Z</time>
      </trkpt>
      <trkpt lat="48.36402" lon="2.72999">
        <ele>70.47</ele>
        <time>2014-02-16T13:22:20Z</time>
      </trkpt>
      <trkpt lat="48.36403" lon="2.72972">
        <ele>74.92</ele>
        <time>2014-02-16T13:22:34Z</time>
      </trkpt>
      <trkpt lat="48.36403" lon="2.72943">
        <ele>75.09</ele>
        <time>2014-02-16T13:22:49Z</time>
      </trkpt>
      <trkpt lat="48.36405" lon="2.72916">
        <ele>77.75</ele>
        <time>2014-02-16T13:23:02Z</time>
      </trkpt>
      <trkpt lat="48.36405" lon="2.72887">
        <ele>81.93</ele>
        <time>2014-02-16T13:23:17Z</time>
      </trkpt>
      <trkpt lat="48.36412" lon="2.72862">
        <ele>81.87</ele>
        <time>2014-02-16T13:23:32Z</time>
      </trkpt>
      <trkpt lat="48.36417" lon="2.72836">
        <ele>82.71</ele>
        <time>2014-02-16T13:23:50Z</time>
      </trkpt>
      <trkpt lat="48.36417" lon="2.72808">
        <ele>78.08</ele>
        <time>2014-02-16T13:24:04Z</time>
      </trkpt>
      <trkpt lat="48.36419" lon="2.72781">
        <ele>74.85</ele>
        <time>2014-02-16T13:24:22Z</time>
      </trkpt>
      <trkpt lat="48.36425" lon="2.72753">
        <ele>75.61</ele>
        <time>2014-02-16T13:24:35Z</time>
      </trkpt>
      <trkpt lat="48.36426" lon="2.72725">
        <ele>83.33</ele>
        <time>2014-02-16T13:24:48Z</time>
      </trkpt>
      <trkpt lat="48.36429" lon="2.72699">
        <ele>83.26</ele>
        <time>2014-02-16T13:25:09Z</time>
      </trkpt>
      <trkpt lat="48.36413" lon="2.72686">
        <ele>85.24</ele>
        <time>2014-02-16T13:25:24Z</time>
      </trkpt>
      <trkpt lat="48.36394" lon="2.72683">
        <ele>81.29</ele>
        <time>2014-02-16T13:25:44Z</time>
      </trkpt>
      <trkpt lat="48.36376" lon="2.72676">
        <ele>80.07</ele>
        <time>2014-02-16T13:26:00Z</time>
      </trkpt>
      <trkpt lat="48.36358" lon="2.72673">
        <ele>82.54</ele>
        <time>2014-02-16T13:26:15Z</time>
      </trkpt>
      <trkpt lat="48.36339" lon="2.72673">
        <ele>78.45</ele>
        <time>2014-02-16T13:26:34Z</time>
      </trkpt>
      <trkpt lat="48.36321" lon="2.72679">
        <ele>77.22</ele>
        <time>2014-02-16T13:26:52Z</time>
      </trkpt>
      <trkpt lat="48.36303" lon="2.72676">
        <ele>78.39</ele>
        <time>2014-02-16T13:27:05Z</time>
      </trkpt>
      <trkpt lat="48.36284" lon="2.72673">
        <ele>76.96</ele>
        <time>2014-02-16T13:27:19Z</time>
      </trkpt>
      <trkpt lat="48.36266" lon="2.72672">
        <ele>75.85</ele>
        <time>2014-02-16T13:27:36Z</time>
      </trkpt>
      <trkpt lat="48.36248" lon="2.7267">
        <ele>72.18</ele>
        <time>2014-02-16T13:27:56Z</time>
      </trkpt>
      <trkpt lat="48.36228" lon="2.72668">
        <ele>71.75</ele>
        <time>2014-02-16T13:28:09Z</time>
      </trkpt>
      <trkpt lat="48.3621" lon="2.72665">
        <ele>75.65</ele>
        <time>2014-02-16T13:28:21Z</time>
      </trkpt>
      <trkpt lat="48.36192" lon="2.72668">
        <ele>70.77</ele>
        <time>2014-02-16T13:28:37Z</time>
      </trkpt>
      <trkpt lat="48.36174" lon="2.72661">
        <ele>70.03</ele>
        <time>2014-02-16T13:29:02Z</time>
      </trkpt>
      <trkpt lat="48.36156" lon="2.72661">
        <ele>69.52</ele>
        <time>2014-02-16T13:29:20Z</time>
      </trkpt>
      <trkpt lat="48.36137" lon="2.72659">
        <ele>75.86</ele>
        <time>2014-02-16T13:29:38Z</time>
      </trkpt>
      <trkpt lat="48.36119" lon="2.72655">
        <ele>85</ele>
        <time>2014-02-16T13:29:58Z</time>
      </trkpt>
      <trkpt lat="48.36099" lon="2.72655">
        <ele>75.38</ele>
        <time>2014-02-16T13:30:20Z</time>
      </trkpt>
      <trkpt lat="48.3608" lon="2.72658">
        <ele>76.15</ele>
        <time>2014-02-16T13:30:36Z</time>
      </trkpt>
      <trkpt lat="48.36062" lon="2.72656">
        <ele>74.39</ele>
        <time>2014-02-16T13:30:54Z</time>
      </trkpt>
      <trkpt lat="48.36044" lon="2.72654">
        <ele>77.96</ele>
        <time>2014-02-16T13:31:15Z</time>
      </trkpt>
      <trkpt lat="48.36025" lon="2.7265">
        <ele>84.1</ele>
        <time>2014-02-16T13:31:40Z</time>
      </trkpt>
      <trkpt lat="48.36007" lon="2.72649">
        <ele>76.35</ele>
        <time>2014-02-16T13:31:53Z</time>
      </trkpt>
      <trkpt lat="48.35989" lon="2.72644">
        <ele>80.8</ele>
        <time>2014-02-16T13:32:13Z</time>
      </trkpt>
      <trkpt lat="48.3597" lon="2.72645">
        <ele>76.87</ele>
        <time>2014-02-16T13:32:29Z</time>
      </trkpt>
      <trkpt lat="48.35952" lon="2.72647">
        <ele>67.38</ele>
        <time>2014-02-16T13:32:41Z</time>
      </trkpt>
      <trkpt lat="48.35933" lon="2.72648">
        <ele>62.62</ele>
        <time>2014-02-16T13:32:58Z</time>
      </trkpt>
      <trkpt lat="48.35915" lon="2.72644">
        <ele>65.94</ele>
        <time>2014-02-16T13:33:11Z</time>
      </trkpt>
      <trkpt lat="48.35897" lon="2.72639">
        <ele>72.77</ele>
        <time>2014-02-16T13:33:32Z</time>
      </trkpt>
      <trkpt lat="48.35879" lon="2.72636">
        <ele>70.77</ele>
        <time>2014-02-16T13:33:52Z</time>
      </trkpt>
      <trkpt lat="48.3586" lon="2.72635">
        <ele>70.03</ele>
        <time>2014-02-16T13:34:16Z</time>
      </trkpt>
      <trkpt lat="48.35841" lon="2.72631">
        <ele>74.32</ele>
        <time>2014-02-16T13:34:41Z</time>
      </trkpt>
      <trkpt lat="48.35823" lon="2.72622">
        <ele>77.97</ele>
        <time>2014-02-16T13:34:55Z</time>
      </trkpt>
      <trkpt lat="48.35806" lon="2.72611">
        <ele>78.44</ele>
        <time>2014-02-16T13:35:07Z</time>
      </trkpt>
      <trkpt lat="48.35789" lon="2.726">
        <ele>76.08</ele>
        <time>2014-02-16T13:35:25Z</time>
      </trkpt>
      <trkpt lat="48.35772" lon="2.72593">
        <ele>77.02</ele>
        <time>2014-02-16T13:35:45Z</time>
      </trkpt>
      <trkpt lat="48.35754" lon="2.72581">
        <ele>86.17</ele>
        <time>2014-02-16T13:36:05Z</time>
      </trkpt>
      <trkpt lat="48.35736" lon="2.72579">
        <ele>88.75</ele>
        <time>2014-02-16T13:36:20Z</time>
      </trkpt>
      <trkpt lat="48.35717" lon="2.72578">
        <ele>88.65</ele>
        <time>2014-02-16T13:36:39Z</time>
      </trkpt>
      <trkpt lat="48.35699" lon="2.72574">
        <ele>81.99</ele>
        <time>2014-02-16T13:36:53Z</time>
      </trkpt>
      <trkpt lat="48.35682" lon="2.7256">
        <ele>73.67</ele>
        <time>2014-02-16T13:37:15Z</time>
      </trkpt>
      <trkpt lat="48.3567" lon="2.72538">
        <ele>76.27</ele>
        <time>2014-02-16T13:37:30Z</time>
      </trkpt>
      <trkpt lat="48.35658" lon="2.72516">
        <ele>75.75</ele>
        <time>2014-02-16T13:37:47Z</time>
      </trkpt>
      <trkpt lat="48.35649" lon="2.72492">
        <ele>82.4</ele>
        <time>2014-02-16T13:38:01Z</time>
      </trkpt>
      <trkpt lat="48.35632" lon="2.72483">
        <ele>88.84</ele>
        <time>2014-02-16T13:38:29Z</time>
      </trkpt>
      <trkpt lat="48.35614" lon="2.72471">
        <ele>92.51</ele>
        <time>2014-02-16T13:38:54Z</time>
      </trkpt>
      <trkpt lat="48.35598" lon="2.72456">
        <ele>89.85</ele>
        <time>2014-02-16T13:39:04Z</time>
      </trkpt>
      <trkpt lat="48.35584" lon="2.72436">
        <ele>86.42</ele>
        <time>2014-02-16T13:39:18Z</time>
      </trkpt>
      <trkpt lat="48.35579" lon="2.7241">
        <ele>85</ele>
        <time>2014-02-16T13:39:33Z</time>
      </trkpt>
      <trkpt lat="48.35577" lon="2.72381">
        <ele>86.09</ele>
        <time>2014-02-16T13:39:47Z</time>
      </trkpt>
      <trkpt lat="48.35577" lon="2.72353">
        <ele>84.39</ele>
        <time>2014-02-16T13:40:04Z</time>
      </trkpt>
      <trkpt lat="48.35577" lon="2.72325">
        <ele>87.53</ele>
        <time>2014-02-16T13:40:18Z</time>
      </trkpt>
      <trkpt lat="48.35578" lon="2.72298">
        <ele>88.25</ele>
        <time>2014-02-16T13:40:34Z</time>
      </trkpt>
      <trkpt lat="48.35573" lon="2.72271">
        <ele>87.95</ele>
        <time>2014-02-16T13:40:48Z</time>
      </trkpt>
      <trkpt lat="48.35568" lon="2.72243">
        <ele>86.33</ele>
        <time>2014-02-16T13:41:05Z</time>
      </trkpt>
      <trkpt lat="48.3556" lon="2.72218">
        <ele>82.2</ele>
        <time>2014-02-16T13:41:21Z</time>
      </trkpt>
      <trkpt lat="48.35552" lon="2.72192">
        <ele>79.16</ele>
        <time>2014-02-16T13:41:43Z</time>
      </trkpt>
      <trkpt lat="48.35543" lon="2.72168">
        <ele>74.72</ele>
        <time>2014-02-16T13:41:56Z</time>
      </trkpt>
      <trkpt lat="48.35535" lon="2.72144">
        <ele>78.99</ele>
        <time>2014-02-16T13:42:08Z</time>
      </trkpt>
      <trkpt lat="48.35528" lon="2.72118">
        <ele>82.25</ele>
        <time>2014-02-16T13:42:20Z</time>
      </trkpt>
      <trkpt lat="48.35523" lon="2.72091">
        <ele>83.55</ele>
        <time>2014-02-16T13:42:38Z</time>
      </trkpt>
      <trkpt lat="48.35514" lon="2.72066">
        <ele>82.21</ele>
        <time>2014-02-16T13:42:56Z</time>
      </trkpt>
      <trkpt lat="48.355" lon="2.72046">
        <ele>78.14</ele>
        <time>2014-02-16T13:43:15Z</time>
      </trkpt>
      <trkpt lat="48.35482" lon="2.72034">
        <ele>82.6</ele>
        <time>2014-02-16T13:43:32Z</time>
      </trkpt>
      <trkpt lat="48.35463" lon="2.72032">
        <ele>85.84</ele>
        <time>2014-02-16T13:43:54Z</time>
      </trkpt>
      <trkpt lat="48.35444" lon="2.72033">
        <ele>88.76</ele>
        <time>2014-02-16T13:44:03Z</time>
      </trkpt>
      <trkpt lat="48.35426" lon="2.7203">
        <ele>82.31</ele>
        <time>2014-02-16T13:44:20Z</time>
      </trkpt>
      <trkpt lat="48.35406" lon="2.72028">
        <ele>79.36</ele>
        <time>2014-02-16T13:44:37Z</time>
      </trkpt>
      <trkpt lat="48.35387" lon="2.72028">
        <ele>82.99</ele>
        <time>2014-02-16T13:44:50Z</time>
      </trkpt>
      <trkpt lat="48.35369" lon="2.72029">
        <ele>87.26</ele>
        <time>2014-02-16T13:45:00Z</time>
      </trkpt>
      <trkpt lat="48.35351" lon="2.72029">
        <ele>86.36</ele>
        <time>2014-02-16T13:45:18Z</time>
      </trkpt>
      <trkpt lat="48.35332" lon="2.7203">
        <ele>85.09</ele>
        <time>2014-02-16T13:45:33Z</time>
      </trkpt>
      <trkpt lat="48.35314" lon="2.72024">
        <ele>89.23</ele>
        <time>2014-02-16T13:45:49Z</time>
      </trkpt>
      <trkpt lat="48.35302" lon="2.72045">
        <ele>82.03</ele>
        <time>2014-02-16T13:46:22Z</time>
      </trkpt>
      <trkpt lat="48.35298" lon="2.72072">
        <ele>81.13</ele>
        <time>2014-02-16T13:46:55Z</time>
      </trkpt>
      <trkpt lat="48.35289" lon="2.72096">
        <ele>80.96</ele>
        <time>2014-02-16T13:47:08Z</time>
      </trkpt>
      <trkpt lat="48.3528" lon="2.7212">
        <ele>79.43</ele>
        <time>2014-02-16T13:47:24Z</time>
      </trkpt>
      <trkpt lat="48.35272" lon="2.72145">
        <ele>77.12</ele>
        <time>2014-02-16T13:47:47Z</time>
      </trkpt>
      <trkpt lat="48.35261" lon="2.72168">
        <ele>75.75</ele>
        <time>2014-02-16T13:48:02Z</time>
      </trkpt>
      <trkpt lat="48.35254" lon="2.72193">
        <ele>78.12</ele>
        <time>2014-02-16T13:48:15Z</time>
      </trkpt>
      <trkpt lat="48.35248" lon="2.72219">
        <ele>79.41</ele>
        <time>2014-02-16T13:48:33Z</time>
      </trkpt>
      <trkpt lat="48.35242" lon="2.72245">
        <ele>82.19</ele>
        <time>2014-02-16T13:48:47Z</time>
      </trkpt>
      <trkpt lat="48.35241" lon="2.72272">
        <ele>79.87</ele>
        <time>2014-02-16T13:49:06Z</time>
      </trkpt>
      <trkpt lat="48.35243" lon="2.72301">
        <ele>83.44</ele>
        <time>2014-02-16T13:49:21Z</time>
      </trkpt>
      <trkpt lat="48.3525" lon="2.72326">
        <ele>77.57</ele>
        <time>2014-02-16T13:49:38Z</time>
      </trkpt>
      <trkpt lat="48.35259" lon="2.72351">
        <ele>70.2</ele>
        <time>2014-02-16T13:49:56Z</time>
      </trkpt>
      <trkpt lat="48.3527" lon="2.72372">
        <ele>68.02</ele>
        <time>2014-02-16T13:50:12Z</time>
      </trkpt>
      <trkpt lat="48.3528" lon="2.72395">
        <ele>72.11</ele>
        <time>2014-02-16T13:50:31Z</time>
      </trkpt>
      <trkpt lat="48.35289" lon="2.7242">
        <ele>75.78</ele>
        <time>2014-02-16T13:50:46Z</time>
      </trkpt>
      <trkpt lat="48.35299" lon="2.72444">
        <ele>83.57</ele>
        <time>2014-02-16T13:51:03Z</time>
      </trkpt>
      <trkpt lat="48.35305" lon="2.72471">
        <ele>87.35</ele>
        <time>2014-02-16T13:51:16Z</time>
      </trkpt>
      <trkpt lat="48.35316" lon="2.72492">
        <ele>86.71</ele>
        <time>2014-02-16T13:51:34Z</time>
      </trkpt>
      <trkpt lat="48.35327" lon="2.72516">
        <ele>89.28</ele>
        <time>2014-02-16T13:51:48Z</time>
      </trkpt>
      <trkpt lat="48.35336" lon="2.72541">
        <ele>89.95</ele>
        <time>2014-02-16T13:52:05Z</time>
      </trkpt>
      <trkpt lat="48.35344" lon="2.72567">
        <ele>88.61</ele>
        <time>2014-02-16T13:52:19Z</time>
      </trkpt>
      <trkpt lat="48.35352" lon="2.72591">
        <ele>88.64</ele>
        <time>2014-02-16T13:52:32Z</time>
      </trkpt>
      <trkpt lat="48.35361" lon="2.72616">
        <ele>89.72</ele>
        <time>2014-02-16T13:52:47Z</time>
      </trkpt>
      <trkpt lat="48.35367" lon="2.72641">
        <ele>85.48</ele>
        <time>2014-02-16T13:53:03Z</time>
      </trkpt>
      <trkpt lat="48.35383" lon="2.72656">
        <ele>86.57</ele>
        <time>2014-02-16T13:53:20Z</time>
      </trkpt>
      <trkpt lat="48.35395" lon="2.72677">
        <ele>88.22</ele>
        <time>2014-02-16T13:53:35Z</time>
      </trkpt>
      <trkpt lat="48.35402" lon="2.72704">
        <ele>90.61</ele>
        <time>2014-02-16T13:53:50Z</time>
      </trkpt>
      <trkpt lat="48.35413" lon="2.72727">
        <ele>92.81</ele>
        <time>2014-02-16T13:54:11Z</time>
      </trkpt>
      <trkpt lat="48.35413" lon="2.72755">
        <ele>89.4</ele>
        <time>2014-02-16T13:54:32Z</time>
      </trkpt>
      <trkpt lat="48.354" lon="2.72776">
        <ele>90.49</ele>
        <time>2014-02-16T13:54:45Z</time>
      </trkpt>
      <trkpt lat="48.3539" lon="2.72799">
        <ele>90.06</ele>
        <time>2014-02-16T13:55:14Z</time>
      </trkpt>
    </trkseg>
  </trk>
</gpx>